<?xml version="1.0" encoding="UTF-8" standalone="no" ?>
<gpx xmlns="http://www.topografix.com/GPX/1/1" xmlns:xsi="http://www.w3.org/2001/XMLSchema-instance" xsi:schemaLocation="http://www.topografix.com/GPX/1/1 http://www.topografix.com/GPX/1/1/gpx.xsd" version="1.1" creator="VisuGPX - https://www.visugpx.com">
  <metadata>
    <name>Rocher du Solitaire</name>
    <desc><![CDATA[couloir Corde
4.1
Chartreuse.
Pont des Allemands -> Pont StBruno]]></desc>
  </metadata>
  <trk>
    <name><![CDATA[ACTIVE LOG- 25 FEV 2015 13-07]]></name>
    <trkseg>
      <trkpt lat="45.35512" lon="5.78782">
        <ele>803.8</ele>
        <time>2015-02-25T12:10:00Z</time>
      </trkpt>
      <trkpt lat="45.35508" lon="5.78757">
        <ele>802.84</ele>
        <time>2015-02-25T12:10:13Z</time>
      </trkpt>
      <trkpt lat="45.35512" lon="5.78746">
        <ele>802.84</ele>
        <time>2015-02-25T12:10:36Z</time>
      </trkpt>
      <trkpt lat="45.35516" lon="5.78748">
        <ele>802.84</ele>
        <time>2015-02-25T12:10:55Z</time>
      </trkpt>
      <trkpt lat="45.35514" lon="5.78749">
        <ele>801.88</ele>
        <time>2015-02-25T12:11:29Z</time>
      </trkpt>
      <trkpt lat="45.35508" lon="5.78767">
        <ele>801.4</ele>
        <time>2015-02-25T12:11:57Z</time>
      </trkpt>
      <trkpt lat="45.35508" lon="5.78772">
        <ele>801.88</ele>
        <time>2015-02-25T12:12:04Z</time>
      </trkpt>
      <trkpt lat="45.35506" lon="5.78781">
        <ele>800.92</ele>
        <time>2015-02-25T12:12:19Z</time>
      </trkpt>
      <trkpt lat="45.35505" lon="5.7878">
        <ele>801.4</ele>
        <time>2015-02-25T12:12:20Z</time>
      </trkpt>
      <trkpt lat="45.35507" lon="5.78788">
        <ele>800.92</ele>
        <time>2015-02-25T12:12:40Z</time>
      </trkpt>
      <trkpt lat="45.35502" lon="5.78801">
        <ele>800.92</ele>
        <time>2015-02-25T12:13:04Z</time>
      </trkpt>
      <trkpt lat="45.35498" lon="5.78799">
        <ele>801.88</ele>
        <time>2015-02-25T12:13:22Z</time>
      </trkpt>
      <trkpt lat="45.35498" lon="5.78799">
        <ele>800.92</ele>
        <time>2015-02-25T12:13:30Z</time>
      </trkpt>
      <trkpt lat="45.355" lon="5.78805">
        <ele>800.92</ele>
        <time>2015-02-25T12:13:34Z</time>
      </trkpt>
      <trkpt lat="45.35499" lon="5.78806">
        <ele>801.88</ele>
        <time>2015-02-25T12:13:50Z</time>
      </trkpt>
      <trkpt lat="45.35498" lon="5.78815">
        <ele>802.36</ele>
        <time>2015-02-25T12:13:58Z</time>
      </trkpt>
      <trkpt lat="45.35488" lon="5.78816">
        <ele>802.36</ele>
        <time>2015-02-25T12:14:12Z</time>
      </trkpt>
      <trkpt lat="45.35492" lon="5.78836">
        <ele>802.84</ele>
        <time>2015-02-25T12:14:27Z</time>
      </trkpt>
      <trkpt lat="45.35496" lon="5.78821">
        <ele>803.32</ele>
        <time>2015-02-25T12:14:32Z</time>
      </trkpt>
      <trkpt lat="45.35499" lon="5.78812">
        <ele>803.32</ele>
        <time>2015-02-25T12:14:49Z</time>
      </trkpt>
      <trkpt lat="45.35494" lon="5.78808">
        <ele>804.28</ele>
        <time>2015-02-25T12:15:05Z</time>
      </trkpt>
      <trkpt lat="45.35494" lon="5.78809">
        <ele>804.76</ele>
        <time>2015-02-25T12:15:22Z</time>
      </trkpt>
      <trkpt lat="45.35495" lon="5.7881">
        <ele>805.72</ele>
        <time>2015-02-25T12:15:38Z</time>
      </trkpt>
      <trkpt lat="45.35499" lon="5.78809">
        <ele>806.68</ele>
        <time>2015-02-25T12:15:58Z</time>
      </trkpt>
      <trkpt lat="45.35503" lon="5.788">
        <ele>807.16</ele>
        <time>2015-02-25T12:16:22Z</time>
      </trkpt>
      <trkpt lat="45.3551" lon="5.78793">
        <ele>808.13</ele>
        <time>2015-02-25T12:16:50Z</time>
      </trkpt>
      <trkpt lat="45.35502" lon="5.78792">
        <ele>808.13</ele>
        <time>2015-02-25T12:17:11Z</time>
      </trkpt>
      <trkpt lat="45.35502" lon="5.78794">
        <ele>808.13</ele>
        <time>2015-02-25T12:17:31Z</time>
      </trkpt>
      <trkpt lat="45.35503" lon="5.78796">
        <ele>809.09</ele>
        <time>2015-02-25T12:17:58Z</time>
      </trkpt>
      <trkpt lat="45.35501" lon="5.78788">
        <ele>809.57</ele>
        <time>2015-02-25T12:18:18Z</time>
      </trkpt>
      <trkpt lat="45.355" lon="5.78771">
        <ele>810.05</ele>
        <time>2015-02-25T12:18:36Z</time>
      </trkpt>
      <trkpt lat="45.35513" lon="5.78767">
        <ele>813.41</ele>
        <time>2015-02-25T12:19:59Z</time>
      </trkpt>
      <trkpt lat="45.35514" lon="5.78765">
        <ele>813.89</ele>
        <time>2015-02-25T12:20:03Z</time>
      </trkpt>
      <trkpt lat="45.35504" lon="5.78757">
        <ele>816.3</ele>
        <time>2015-02-25T12:20:18Z</time>
      </trkpt>
      <trkpt lat="45.35502" lon="5.78728">
        <ele>818.7</ele>
        <time>2015-02-25T12:20:31Z</time>
      </trkpt>
      <trkpt lat="45.35494" lon="5.78715">
        <ele>822.06</ele>
        <time>2015-02-25T12:20:45Z</time>
      </trkpt>
      <trkpt lat="45.35485" lon="5.78709">
        <ele>823.51</ele>
        <time>2015-02-25T12:20:59Z</time>
      </trkpt>
      <trkpt lat="45.35483" lon="5.78709">
        <ele>825.91</ele>
        <time>2015-02-25T12:21:15Z</time>
      </trkpt>
      <trkpt lat="45.35477" lon="5.7871">
        <ele>826.87</ele>
        <time>2015-02-25T12:21:20Z</time>
      </trkpt>
      <trkpt lat="45.35455" lon="5.78711">
        <ele>828.31</ele>
        <time>2015-02-25T12:21:35Z</time>
      </trkpt>
      <trkpt lat="45.35446" lon="5.78711">
        <ele>830.72</ele>
        <time>2015-02-25T12:21:46Z</time>
      </trkpt>
      <trkpt lat="45.35438" lon="5.78705">
        <ele>832.16</ele>
        <time>2015-02-25T12:21:55Z</time>
      </trkpt>
      <trkpt lat="45.35424" lon="5.78716">
        <ele>834.56</ele>
        <time>2015-02-25T12:22:08Z</time>
      </trkpt>
      <trkpt lat="45.35415" lon="5.78706">
        <ele>836.48</ele>
        <time>2015-02-25T12:22:19Z</time>
      </trkpt>
      <trkpt lat="45.35411" lon="5.78688">
        <ele>838.89</ele>
        <time>2015-02-25T12:22:31Z</time>
      </trkpt>
      <trkpt lat="45.35403" lon="5.7868">
        <ele>840.81</ele>
        <time>2015-02-25T12:22:44Z</time>
      </trkpt>
      <trkpt lat="45.35392" lon="5.78686">
        <ele>843.21</ele>
        <time>2015-02-25T12:22:56Z</time>
      </trkpt>
      <trkpt lat="45.35381" lon="5.78674">
        <ele>845.62</ele>
        <time>2015-02-25T12:23:09Z</time>
      </trkpt>
      <trkpt lat="45.35377" lon="5.78677">
        <ele>846.1</ele>
        <time>2015-02-25T12:23:13Z</time>
      </trkpt>
      <trkpt lat="45.35373" lon="5.78658">
        <ele>847.54</ele>
        <time>2015-02-25T12:23:27Z</time>
      </trkpt>
      <trkpt lat="45.35377" lon="5.78654">
        <ele>847.54</ele>
        <time>2015-02-25T12:23:39Z</time>
      </trkpt>
      <trkpt lat="45.35372" lon="5.78653">
        <ele>848.98</ele>
        <time>2015-02-25T12:23:51Z</time>
      </trkpt>
      <trkpt lat="45.35361" lon="5.78651">
        <ele>851.87</ele>
        <time>2015-02-25T12:24:06Z</time>
      </trkpt>
      <trkpt lat="45.35353" lon="5.78638">
        <ele>854.75</ele>
        <time>2015-02-25T12:24:19Z</time>
      </trkpt>
      <trkpt lat="45.35344" lon="5.78619">
        <ele>858.11</ele>
        <time>2015-02-25T12:24:35Z</time>
      </trkpt>
      <trkpt lat="45.35331" lon="5.78606">
        <ele>860.52</ele>
        <time>2015-02-25T12:24:47Z</time>
      </trkpt>
      <trkpt lat="45.3532" lon="5.78602">
        <ele>862.92</ele>
        <time>2015-02-25T12:25:01Z</time>
      </trkpt>
      <trkpt lat="45.35311" lon="5.78583">
        <ele>864.84</ele>
        <time>2015-02-25T12:25:15Z</time>
      </trkpt>
      <trkpt lat="45.35299" lon="5.7859">
        <ele>866.29</ele>
        <time>2015-02-25T12:25:27Z</time>
      </trkpt>
      <trkpt lat="45.3529" lon="5.78587">
        <ele>868.21</ele>
        <time>2015-02-25T12:25:37Z</time>
      </trkpt>
      <trkpt lat="45.35278" lon="5.78583">
        <ele>870.13</ele>
        <time>2015-02-25T12:25:49Z</time>
      </trkpt>
      <trkpt lat="45.35264" lon="5.78571">
        <ele>872.53</ele>
        <time>2015-02-25T12:26:05Z</time>
      </trkpt>
      <trkpt lat="45.35253" lon="5.78564">
        <ele>874.94</ele>
        <time>2015-02-25T12:26:20Z</time>
      </trkpt>
      <trkpt lat="45.3524" lon="5.78555">
        <ele>877.82</ele>
        <time>2015-02-25T12:26:36Z</time>
      </trkpt>
      <trkpt lat="45.35239" lon="5.78555">
        <ele>880.71</ele>
        <time>2015-02-25T12:26:51Z</time>
      </trkpt>
      <trkpt lat="45.35239" lon="5.78555">
        <ele>884.07</ele>
        <time>2015-02-25T12:27:09Z</time>
      </trkpt>
      <trkpt lat="45.35238" lon="5.78554">
        <ele>887.43</ele>
        <time>2015-02-25T12:27:21Z</time>
      </trkpt>
      <trkpt lat="45.35217" lon="5.78532">
        <ele>890.32</ele>
        <time>2015-02-25T12:27:40Z</time>
      </trkpt>
      <trkpt lat="45.35195" lon="5.7849">
        <ele>891.76</ele>
        <time>2015-02-25T12:28:00Z</time>
      </trkpt>
      <trkpt lat="45.35191" lon="5.78451">
        <ele>893.2</ele>
        <time>2015-02-25T12:28:13Z</time>
      </trkpt>
      <trkpt lat="45.35187" lon="5.78414">
        <ele>893.68</ele>
        <time>2015-02-25T12:28:20Z</time>
      </trkpt>
      <trkpt lat="45.35187" lon="5.78359">
        <ele>895.61</ele>
        <time>2015-02-25T12:28:36Z</time>
      </trkpt>
      <trkpt lat="45.35193" lon="5.78291">
        <ele>896.57</ele>
        <time>2015-02-25T12:28:52Z</time>
      </trkpt>
      <trkpt lat="45.35191" lon="5.7826">
        <ele>897.53</ele>
        <time>2015-02-25T12:29:07Z</time>
      </trkpt>
      <trkpt lat="45.35193" lon="5.78214">
        <ele>898.01</ele>
        <time>2015-02-25T12:29:20Z</time>
      </trkpt>
      <trkpt lat="45.35207" lon="5.78122">
        <ele>896.09</ele>
        <time>2015-02-25T12:29:34Z</time>
      </trkpt>
      <trkpt lat="45.35209" lon="5.78114">
        <ele>895.61</ele>
        <time>2015-02-25T12:29:35Z</time>
      </trkpt>
      <trkpt lat="45.35199" lon="5.78068">
        <ele>892.72</ele>
        <time>2015-02-25T12:29:47Z</time>
      </trkpt>
      <trkpt lat="45.35199" lon="5.78029">
        <ele>892.24</ele>
        <time>2015-02-25T12:29:59Z</time>
      </trkpt>
      <trkpt lat="45.35209" lon="5.7799">
        <ele>892.24</ele>
        <time>2015-02-25T12:30:12Z</time>
      </trkpt>
      <trkpt lat="45.35218" lon="5.77952">
        <ele>892.72</ele>
        <time>2015-02-25T12:30:26Z</time>
      </trkpt>
      <trkpt lat="45.35222" lon="5.77989">
        <ele>893.68</ele>
        <time>2015-02-25T12:30:39Z</time>
      </trkpt>
      <trkpt lat="45.35218" lon="5.78031">
        <ele>892.72</ele>
        <time>2015-02-25T12:30:57Z</time>
      </trkpt>
      <trkpt lat="45.35218" lon="5.78031">
        <ele>892.24</ele>
        <time>2015-02-25T12:31:22Z</time>
      </trkpt>
      <trkpt lat="45.35229" lon="5.7802">
        <ele>893.2</ele>
        <time>2015-02-25T12:31:37Z</time>
      </trkpt>
      <trkpt lat="45.3523" lon="5.78019">
        <ele>893.2</ele>
        <time>2015-02-25T12:31:39Z</time>
      </trkpt>
      <trkpt lat="45.35233" lon="5.78014">
        <ele>893.68</ele>
        <time>2015-02-25T12:31:45Z</time>
      </trkpt>
      <trkpt lat="45.35246" lon="5.78006">
        <ele>897.05</ele>
        <time>2015-02-25T12:32:09Z</time>
      </trkpt>
      <trkpt lat="45.35252" lon="5.78045">
        <ele>899.45</ele>
        <time>2015-02-25T12:32:26Z</time>
      </trkpt>
      <trkpt lat="45.35264" lon="5.7804">
        <ele>902.82</ele>
        <time>2015-02-25T12:32:43Z</time>
      </trkpt>
      <trkpt lat="45.35278" lon="5.78023">
        <ele>904.74</ele>
        <time>2015-02-25T12:33:05Z</time>
      </trkpt>
      <trkpt lat="45.35285" lon="5.78007">
        <ele>906.66</ele>
        <time>2015-02-25T12:33:21Z</time>
      </trkpt>
      <trkpt lat="45.35293" lon="5.78003">
        <ele>909.54</ele>
        <time>2015-02-25T12:33:35Z</time>
      </trkpt>
      <trkpt lat="45.35304" lon="5.77995">
        <ele>912.43</ele>
        <time>2015-02-25T12:33:50Z</time>
      </trkpt>
      <trkpt lat="45.35313" lon="5.77989">
        <ele>914.83</ele>
        <time>2015-02-25T12:34:04Z</time>
      </trkpt>
      <trkpt lat="45.35323" lon="5.77988">
        <ele>917.24</ele>
        <time>2015-02-25T12:34:19Z</time>
      </trkpt>
      <trkpt lat="45.3533" lon="5.77978">
        <ele>920.6</ele>
        <time>2015-02-25T12:34:36Z</time>
      </trkpt>
      <trkpt lat="45.35343" lon="5.77979">
        <ele>923</ele>
        <time>2015-02-25T12:34:51Z</time>
      </trkpt>
      <trkpt lat="45.35364" lon="5.77966">
        <ele>926.37</ele>
        <time>2015-02-25T12:35:10Z</time>
      </trkpt>
      <trkpt lat="45.35379" lon="5.77957">
        <ele>929.25</ele>
        <time>2015-02-25T12:35:29Z</time>
      </trkpt>
      <trkpt lat="45.35393" lon="5.77957">
        <ele>932.62</ele>
        <time>2015-02-25T12:35:47Z</time>
      </trkpt>
      <trkpt lat="45.35414" lon="5.77964">
        <ele>935.5</ele>
        <time>2015-02-25T12:36:06Z</time>
      </trkpt>
      <trkpt lat="45.35433" lon="5.77971">
        <ele>938.86</ele>
        <time>2015-02-25T12:36:27Z</time>
      </trkpt>
      <trkpt lat="45.35443" lon="5.7797">
        <ele>939.83</ele>
        <time>2015-02-25T12:36:36Z</time>
      </trkpt>
      <trkpt lat="45.35458" lon="5.77973">
        <ele>942.71</ele>
        <time>2015-02-25T12:36:57Z</time>
      </trkpt>
      <trkpt lat="45.35472" lon="5.7797">
        <ele>945.59</ele>
        <time>2015-02-25T12:37:16Z</time>
      </trkpt>
      <trkpt lat="45.35488" lon="5.77961">
        <ele>948</ele>
        <time>2015-02-25T12:37:38Z</time>
      </trkpt>
      <trkpt lat="45.35505" lon="5.77958">
        <ele>950.4</ele>
        <time>2015-02-25T12:37:52Z</time>
      </trkpt>
      <trkpt lat="45.35511" lon="5.77937">
        <ele>951.84</ele>
        <time>2015-02-25T12:38:05Z</time>
      </trkpt>
      <trkpt lat="45.35513" lon="5.77903">
        <ele>953.77</ele>
        <time>2015-02-25T12:38:19Z</time>
      </trkpt>
      <trkpt lat="45.35518" lon="5.7787">
        <ele>953.77</ele>
        <time>2015-02-25T12:38:32Z</time>
      </trkpt>
      <trkpt lat="45.35521" lon="5.77859">
        <ele>953.77</ele>
        <time>2015-02-25T12:38:45Z</time>
      </trkpt>
      <trkpt lat="45.35529" lon="5.77854">
        <ele>953.28</ele>
        <time>2015-02-25T12:39:02Z</time>
      </trkpt>
      <trkpt lat="45.35529" lon="5.77852">
        <ele>952.8</ele>
        <time>2015-02-25T12:39:17Z</time>
      </trkpt>
      <trkpt lat="45.35527" lon="5.77838">
        <ele>952.32</ele>
        <time>2015-02-25T12:39:36Z</time>
      </trkpt>
      <trkpt lat="45.35521" lon="5.77821">
        <ele>954.73</ele>
        <time>2015-02-25T12:40:00Z</time>
      </trkpt>
      <trkpt lat="45.3552" lon="5.77818">
        <ele>957.13</ele>
        <time>2015-02-25T12:40:31Z</time>
      </trkpt>
      <trkpt lat="45.35518" lon="5.77818">
        <ele>960.01</ele>
        <time>2015-02-25T12:41:10Z</time>
      </trkpt>
      <trkpt lat="45.35518" lon="5.77818">
        <ele>963.38</ele>
        <time>2015-02-25T12:41:42Z</time>
      </trkpt>
      <trkpt lat="45.35521" lon="5.77817">
        <ele>964.82</ele>
        <time>2015-02-25T12:42:03Z</time>
      </trkpt>
      <trkpt lat="45.35526" lon="5.77824">
        <ele>965.78</ele>
        <time>2015-02-25T12:42:15Z</time>
      </trkpt>
      <trkpt lat="45.35533" lon="5.77833">
        <ele>967.22</ele>
        <time>2015-02-25T12:42:29Z</time>
      </trkpt>
      <trkpt lat="45.35535" lon="5.77834">
        <ele>967.22</ele>
        <time>2015-02-25T12:42:32Z</time>
      </trkpt>
      <trkpt lat="45.3554" lon="5.77839">
        <ele>968.67</ele>
        <time>2015-02-25T12:42:43Z</time>
      </trkpt>
      <trkpt lat="45.35546" lon="5.77841">
        <ele>970.59</ele>
        <time>2015-02-25T12:42:55Z</time>
      </trkpt>
      <trkpt lat="45.35549" lon="5.77841">
        <ele>970.59</ele>
        <time>2015-02-25T12:42:58Z</time>
      </trkpt>
      <trkpt lat="45.35552" lon="5.77845">
        <ele>971.55</ele>
        <time>2015-02-25T12:43:03Z</time>
      </trkpt>
      <trkpt lat="45.35555" lon="5.7785">
        <ele>972.51</ele>
        <time>2015-02-25T12:43:09Z</time>
      </trkpt>
      <trkpt lat="45.35559" lon="5.77864">
        <ele>974.43</ele>
        <time>2015-02-25T12:43:22Z</time>
      </trkpt>
      <trkpt lat="45.35564" lon="5.77872">
        <ele>975.88</ele>
        <time>2015-02-25T12:43:35Z</time>
      </trkpt>
      <trkpt lat="45.35565" lon="5.77862">
        <ele>977.8</ele>
        <time>2015-02-25T12:43:46Z</time>
      </trkpt>
      <trkpt lat="45.35565" lon="5.77851">
        <ele>978.76</ele>
        <time>2015-02-25T12:43:55Z</time>
      </trkpt>
      <trkpt lat="45.35566" lon="5.77844">
        <ele>979.72</ele>
        <time>2015-02-25T12:44:02Z</time>
      </trkpt>
      <trkpt lat="45.35566" lon="5.7783">
        <ele>982.12</ele>
        <time>2015-02-25T12:44:14Z</time>
      </trkpt>
      <trkpt lat="45.35567" lon="5.77823">
        <ele>984.05</ele>
        <time>2015-02-25T12:44:25Z</time>
      </trkpt>
      <trkpt lat="45.35568" lon="5.77816">
        <ele>984.53</ele>
        <time>2015-02-25T12:45:18Z</time>
      </trkpt>
      <trkpt lat="45.35577" lon="5.77827">
        <ele>986.93</ele>
        <time>2015-02-25T12:45:34Z</time>
      </trkpt>
      <trkpt lat="45.35583" lon="5.77833">
        <ele>988.37</ele>
        <time>2015-02-25T12:45:43Z</time>
      </trkpt>
      <trkpt lat="45.35592" lon="5.77841">
        <ele>990.78</ele>
        <time>2015-02-25T12:45:57Z</time>
      </trkpt>
      <trkpt lat="45.35595" lon="5.77844">
        <ele>991.26</ele>
        <time>2015-02-25T12:46:02Z</time>
      </trkpt>
      <trkpt lat="45.35603" lon="5.77851">
        <ele>994.14</ele>
        <time>2015-02-25T12:46:14Z</time>
      </trkpt>
      <trkpt lat="45.35609" lon="5.77858">
        <ele>996.06</ele>
        <time>2015-02-25T12:46:27Z</time>
      </trkpt>
      <trkpt lat="45.35612" lon="5.7786">
        <ele>997.02</ele>
        <time>2015-02-25T12:46:32Z</time>
      </trkpt>
      <trkpt lat="45.35621" lon="5.77871">
        <ele>1000.87</ele>
        <time>2015-02-25T12:46:47Z</time>
      </trkpt>
      <trkpt lat="45.35632" lon="5.77876">
        <ele>1003.75</ele>
        <time>2015-02-25T12:47:03Z</time>
      </trkpt>
      <trkpt lat="45.35635" lon="5.77878">
        <ele>1004.23</ele>
        <time>2015-02-25T12:47:06Z</time>
      </trkpt>
      <trkpt lat="45.35644" lon="5.77884">
        <ele>1006.16</ele>
        <time>2015-02-25T12:47:23Z</time>
      </trkpt>
      <trkpt lat="45.3566" lon="5.77893">
        <ele>1007.6</ele>
        <time>2015-02-25T12:47:38Z</time>
      </trkpt>
      <trkpt lat="45.35677" lon="5.77906">
        <ele>1010</ele>
        <time>2015-02-25T12:47:56Z</time>
      </trkpt>
      <trkpt lat="45.35689" lon="5.77914">
        <ele>1010.96</ele>
        <time>2015-02-25T12:48:08Z</time>
      </trkpt>
      <trkpt lat="45.35701" lon="5.7792">
        <ele>1012.89</ele>
        <time>2015-02-25T12:48:22Z</time>
      </trkpt>
      <trkpt lat="45.35713" lon="5.77925">
        <ele>1014.81</ele>
        <time>2015-02-25T12:48:37Z</time>
      </trkpt>
      <trkpt lat="45.35729" lon="5.77933">
        <ele>1016.25</ele>
        <time>2015-02-25T12:48:54Z</time>
      </trkpt>
      <trkpt lat="45.35736" lon="5.77935">
        <ele>1017.21</ele>
        <time>2015-02-25T12:49:01Z</time>
      </trkpt>
      <trkpt lat="45.35737" lon="5.77934">
        <ele>1017.69</ele>
        <time>2015-02-25T12:49:03Z</time>
      </trkpt>
      <trkpt lat="45.35749" lon="5.77936">
        <ele>1020.1</ele>
        <time>2015-02-25T12:49:22Z</time>
      </trkpt>
      <trkpt lat="45.35763" lon="5.77943">
        <ele>1022.98</ele>
        <time>2015-02-25T12:49:41Z</time>
      </trkpt>
      <trkpt lat="45.35766" lon="5.77944">
        <ele>1023.46</ele>
        <time>2015-02-25T12:49:44Z</time>
      </trkpt>
      <trkpt lat="45.35775" lon="5.77949">
        <ele>1026.34</ele>
        <time>2015-02-25T12:49:56Z</time>
      </trkpt>
      <trkpt lat="45.3578" lon="5.77952">
        <ele>1029.23</ele>
        <time>2015-02-25T12:50:07Z</time>
      </trkpt>
      <trkpt lat="45.35787" lon="5.77962">
        <ele>1031.63</ele>
        <time>2015-02-25T12:50:21Z</time>
      </trkpt>
      <trkpt lat="45.35794" lon="5.7797">
        <ele>1034.52</ele>
        <time>2015-02-25T12:50:34Z</time>
      </trkpt>
      <trkpt lat="45.35804" lon="5.77983">
        <ele>1037.4</ele>
        <time>2015-02-25T12:50:52Z</time>
      </trkpt>
      <trkpt lat="45.35814" lon="5.77995">
        <ele>1040.76</ele>
        <time>2015-02-25T12:51:10Z</time>
      </trkpt>
      <trkpt lat="45.35824" lon="5.78002">
        <ele>1043.65</ele>
        <time>2015-02-25T12:51:25Z</time>
      </trkpt>
      <trkpt lat="45.35837" lon="5.78009">
        <ele>1046.53</ele>
        <time>2015-02-25T12:51:42Z</time>
      </trkpt>
      <trkpt lat="45.35847" lon="5.78018">
        <ele>1049.9</ele>
        <time>2015-02-25T12:51:58Z</time>
      </trkpt>
      <trkpt lat="45.35858" lon="5.78022">
        <ele>1052.78</ele>
        <time>2015-02-25T12:52:17Z</time>
      </trkpt>
      <trkpt lat="45.35873" lon="5.78025">
        <ele>1056.15</ele>
        <time>2015-02-25T12:52:37Z</time>
      </trkpt>
      <trkpt lat="45.35874" lon="5.78025">
        <ele>1056.63</ele>
        <time>2015-02-25T12:52:39Z</time>
      </trkpt>
      <trkpt lat="45.35883" lon="5.78021">
        <ele>1056.15</ele>
        <time>2015-02-25T12:52:55Z</time>
      </trkpt>
      <trkpt lat="45.35883" lon="5.78019">
        <ele>1057.11</ele>
        <time>2015-02-25T12:53:14Z</time>
      </trkpt>
      <trkpt lat="45.35891" lon="5.78018">
        <ele>1057.59</ele>
        <time>2015-02-25T12:53:21Z</time>
      </trkpt>
      <trkpt lat="45.35899" lon="5.78017">
        <ele>1058.07</ele>
        <time>2015-02-25T12:53:27Z</time>
      </trkpt>
      <trkpt lat="45.3591" lon="5.78019">
        <ele>1058.07</ele>
        <time>2015-02-25T12:53:36Z</time>
      </trkpt>
      <trkpt lat="45.35912" lon="5.7802">
        <ele>1058.55</ele>
        <time>2015-02-25T12:53:38Z</time>
      </trkpt>
      <trkpt lat="45.35929" lon="5.78027">
        <ele>1059.51</ele>
        <time>2015-02-25T12:53:51Z</time>
      </trkpt>
      <trkpt lat="45.35953" lon="5.78032">
        <ele>1060.47</ele>
        <time>2015-02-25T12:54:06Z</time>
      </trkpt>
      <trkpt lat="45.35952" lon="5.78029">
        <ele>1060.47</ele>
        <time>2015-02-25T12:54:08Z</time>
      </trkpt>
      <trkpt lat="45.3596" lon="5.78031">
        <ele>1059.99</ele>
        <time>2015-02-25T12:54:14Z</time>
      </trkpt>
      <trkpt lat="45.3597" lon="5.78028">
        <ele>1060.47</ele>
        <time>2015-02-25T12:54:21Z</time>
      </trkpt>
      <trkpt lat="45.35978" lon="5.7803">
        <ele>1060.47</ele>
        <time>2015-02-25T12:54:26Z</time>
      </trkpt>
      <trkpt lat="45.35985" lon="5.78034">
        <ele>1060.47</ele>
        <time>2015-02-25T12:54:34Z</time>
      </trkpt>
      <trkpt lat="45.36002" lon="5.7804">
        <ele>1060.47</ele>
        <time>2015-02-25T12:54:45Z</time>
      </trkpt>
      <trkpt lat="45.36009" lon="5.78045">
        <ele>1060.47</ele>
        <time>2015-02-25T12:54:49Z</time>
      </trkpt>
      <trkpt lat="45.36028" lon="5.78063">
        <ele>1059.99</ele>
        <time>2015-02-25T12:55:03Z</time>
      </trkpt>
      <trkpt lat="45.36042" lon="5.78078">
        <ele>1060.95</ele>
        <time>2015-02-25T12:55:18Z</time>
      </trkpt>
      <trkpt lat="45.36046" lon="5.78091">
        <ele>1062.39</ele>
        <time>2015-02-25T12:55:33Z</time>
      </trkpt>
      <trkpt lat="45.36045" lon="5.78087">
        <ele>1063.36</ele>
        <time>2015-02-25T12:55:44Z</time>
      </trkpt>
      <trkpt lat="45.36048" lon="5.78088">
        <ele>1063.36</ele>
        <time>2015-02-25T12:55:51Z</time>
      </trkpt>
      <trkpt lat="45.36058" lon="5.78078">
        <ele>1064.32</ele>
        <time>2015-02-25T12:56:03Z</time>
      </trkpt>
      <trkpt lat="45.36061" lon="5.78075">
        <ele>1065.28</ele>
        <time>2015-02-25T12:56:13Z</time>
      </trkpt>
      <trkpt lat="45.36062" lon="5.78072">
        <ele>1065.76</ele>
        <time>2015-02-25T12:56:28Z</time>
      </trkpt>
      <trkpt lat="45.36071" lon="5.78071">
        <ele>1067.2</ele>
        <time>2015-02-25T12:56:38Z</time>
      </trkpt>
      <trkpt lat="45.36075" lon="5.78072">
        <ele>1068.64</ele>
        <time>2015-02-25T12:56:43Z</time>
      </trkpt>
      <trkpt lat="45.36081" lon="5.78082">
        <ele>1069.12</ele>
        <time>2015-02-25T12:56:57Z</time>
      </trkpt>
      <trkpt lat="45.36078" lon="5.78084">
        <ele>1069.6</ele>
        <time>2015-02-25T12:57:03Z</time>
      </trkpt>
      <trkpt lat="45.36083" lon="5.78089">
        <ele>1069.12</ele>
        <time>2015-02-25T12:57:12Z</time>
      </trkpt>
      <trkpt lat="45.36092" lon="5.7809">
        <ele>1069.12</ele>
        <time>2015-02-25T12:57:26Z</time>
      </trkpt>
      <trkpt lat="45.36089" lon="5.78084">
        <ele>1068.64</ele>
        <time>2015-02-25T12:57:38Z</time>
      </trkpt>
      <trkpt lat="45.36085" lon="5.7808">
        <ele>1068.64</ele>
        <time>2015-02-25T12:57:55Z</time>
      </trkpt>
      <trkpt lat="45.36083" lon="5.78078">
        <ele>1067.68</ele>
        <time>2015-02-25T12:58:16Z</time>
      </trkpt>
      <trkpt lat="45.36085" lon="5.78078">
        <ele>1068.16</ele>
        <time>2015-02-25T12:58:23Z</time>
      </trkpt>
      <trkpt lat="45.36093" lon="5.78075">
        <ele>1069.12</ele>
        <time>2015-02-25T12:58:34Z</time>
      </trkpt>
      <trkpt lat="45.36096" lon="5.78073">
        <ele>1069.6</ele>
        <time>2015-02-25T12:58:38Z</time>
      </trkpt>
      <trkpt lat="45.36102" lon="5.78063">
        <ele>1071.53</ele>
        <time>2015-02-25T12:58:52Z</time>
      </trkpt>
      <trkpt lat="45.36108" lon="5.78052">
        <ele>1073.93</ele>
        <time>2015-02-25T12:59:06Z</time>
      </trkpt>
      <trkpt lat="45.36117" lon="5.78046">
        <ele>1075.85</ele>
        <time>2015-02-25T12:59:19Z</time>
      </trkpt>
      <trkpt lat="45.36121" lon="5.78043">
        <ele>1077.29</ele>
        <time>2015-02-25T12:59:25Z</time>
      </trkpt>
      <trkpt lat="45.36127" lon="5.78043">
        <ele>1078.26</ele>
        <time>2015-02-25T12:59:33Z</time>
      </trkpt>
      <trkpt lat="45.36131" lon="5.78035">
        <ele>1079.7</ele>
        <time>2015-02-25T12:59:42Z</time>
      </trkpt>
      <trkpt lat="45.36136" lon="5.78027">
        <ele>1080.66</ele>
        <time>2015-02-25T12:59:52Z</time>
      </trkpt>
      <trkpt lat="45.36137" lon="5.78022">
        <ele>1081.14</ele>
        <time>2015-02-25T12:59:55Z</time>
      </trkpt>
      <trkpt lat="45.36138" lon="5.78021">
        <ele>1081.14</ele>
        <time>2015-02-25T12:59:57Z</time>
      </trkpt>
      <trkpt lat="45.36141" lon="5.78018">
        <ele>1081.62</ele>
        <time>2015-02-25T13:00:00Z</time>
      </trkpt>
      <trkpt lat="45.36143" lon="5.78014">
        <ele>1082.1</ele>
        <time>2015-02-25T13:00:04Z</time>
      </trkpt>
      <trkpt lat="45.36146" lon="5.78003">
        <ele>1084.5</ele>
        <time>2015-02-25T13:00:18Z</time>
      </trkpt>
      <trkpt lat="45.36151" lon="5.77993">
        <ele>1086.43</ele>
        <time>2015-02-25T13:00:33Z</time>
      </trkpt>
      <trkpt lat="45.36153" lon="5.77986">
        <ele>1087.87</ele>
        <time>2015-02-25T13:00:43Z</time>
      </trkpt>
      <trkpt lat="45.36157" lon="5.77975">
        <ele>1089.79</ele>
        <time>2015-02-25T13:00:55Z</time>
      </trkpt>
      <trkpt lat="45.36157" lon="5.77966">
        <ele>1092.2</ele>
        <time>2015-02-25T13:01:07Z</time>
      </trkpt>
      <trkpt lat="45.36154" lon="5.77961">
        <ele>1093.64</ele>
        <time>2015-02-25T13:01:23Z</time>
      </trkpt>
      <trkpt lat="45.36152" lon="5.77956">
        <ele>1095.56</ele>
        <time>2015-02-25T13:01:32Z</time>
      </trkpt>
      <trkpt lat="45.36149" lon="5.77952">
        <ele>1096.52</ele>
        <time>2015-02-25T13:01:40Z</time>
      </trkpt>
      <trkpt lat="45.36143" lon="5.77946">
        <ele>1097.96</ele>
        <time>2015-02-25T13:01:51Z</time>
      </trkpt>
      <trkpt lat="45.36138" lon="5.77941">
        <ele>1099.4</ele>
        <time>2015-02-25T13:02:01Z</time>
      </trkpt>
      <trkpt lat="45.36133" lon="5.77935">
        <ele>1101.33</ele>
        <time>2015-02-25T13:02:12Z</time>
      </trkpt>
      <trkpt lat="45.36128" lon="5.7793">
        <ele>1102.77</ele>
        <time>2015-02-25T13:02:24Z</time>
      </trkpt>
      <trkpt lat="45.36127" lon="5.77928">
        <ele>1102.77</ele>
        <time>2015-02-25T13:02:27Z</time>
      </trkpt>
      <trkpt lat="45.36124" lon="5.77928">
        <ele>1104.21</ele>
        <time>2015-02-25T13:02:38Z</time>
      </trkpt>
      <trkpt lat="45.36121" lon="5.77928">
        <ele>1104.21</ele>
        <time>2015-02-25T13:02:58Z</time>
      </trkpt>
      <trkpt lat="45.36115" lon="5.77921">
        <ele>1105.17</ele>
        <time>2015-02-25T13:03:10Z</time>
      </trkpt>
      <trkpt lat="45.36109" lon="5.77916">
        <ele>1107.1</ele>
        <time>2015-02-25T13:03:21Z</time>
      </trkpt>
      <trkpt lat="45.36108" lon="5.77915">
        <ele>1107.58</ele>
        <time>2015-02-25T13:03:24Z</time>
      </trkpt>
      <trkpt lat="45.36103" lon="5.7791">
        <ele>1109.98</ele>
        <time>2015-02-25T13:03:36Z</time>
      </trkpt>
      <trkpt lat="45.36098" lon="5.77905">
        <ele>1111.9</ele>
        <time>2015-02-25T13:03:46Z</time>
      </trkpt>
      <trkpt lat="45.36094" lon="5.77901">
        <ele>1113.34</ele>
        <time>2015-02-25T13:03:54Z</time>
      </trkpt>
      <trkpt lat="45.36091" lon="5.77897">
        <ele>1114.79</ele>
        <time>2015-02-25T13:04:07Z</time>
      </trkpt>
      <trkpt lat="45.36086" lon="5.77892">
        <ele>1116.23</ele>
        <time>2015-02-25T13:04:17Z</time>
      </trkpt>
      <trkpt lat="45.36083" lon="5.77886">
        <ele>1117.19</ele>
        <time>2015-02-25T13:04:27Z</time>
      </trkpt>
      <trkpt lat="45.36079" lon="5.77881">
        <ele>1117.67</ele>
        <time>2015-02-25T13:04:41Z</time>
      </trkpt>
      <trkpt lat="45.36076" lon="5.77876">
        <ele>1119.11</ele>
        <time>2015-02-25T13:04:49Z</time>
      </trkpt>
      <trkpt lat="45.36072" lon="5.77874">
        <ele>1119.59</ele>
        <time>2015-02-25T13:04:56Z</time>
      </trkpt>
      <trkpt lat="45.36065" lon="5.77867">
        <ele>1121.52</ele>
        <time>2015-02-25T13:05:09Z</time>
      </trkpt>
      <trkpt lat="45.36059" lon="5.7786">
        <ele>1123.92</ele>
        <time>2015-02-25T13:05:21Z</time>
      </trkpt>
      <trkpt lat="45.36054" lon="5.77855">
        <ele>1125.36</ele>
        <time>2015-02-25T13:05:30Z</time>
      </trkpt>
      <trkpt lat="45.36045" lon="5.77849">
        <ele>1127.28</ele>
        <time>2015-02-25T13:05:43Z</time>
      </trkpt>
      <trkpt lat="45.36038" lon="5.77849">
        <ele>1128.73</ele>
        <time>2015-02-25T13:05:55Z</time>
      </trkpt>
      <trkpt lat="45.36031" lon="5.77846">
        <ele>1132.09</ele>
        <time>2015-02-25T13:06:08Z</time>
      </trkpt>
      <trkpt lat="45.36025" lon="5.77837">
        <ele>1134.97</ele>
        <time>2015-02-25T13:06:21Z</time>
      </trkpt>
      <trkpt lat="45.36023" lon="5.77837">
        <ele>1135.45</ele>
        <time>2015-02-25T13:06:23Z</time>
      </trkpt>
      <trkpt lat="45.36017" lon="5.77837">
        <ele>1136.9</ele>
        <time>2015-02-25T13:06:34Z</time>
      </trkpt>
      <trkpt lat="45.36008" lon="5.7783">
        <ele>1140.26</ele>
        <time>2015-02-25T13:06:51Z</time>
      </trkpt>
      <trkpt lat="45.36005" lon="5.77823">
        <ele>1140.74</ele>
        <time>2015-02-25T13:06:57Z</time>
      </trkpt>
      <trkpt lat="45.36001" lon="5.77817">
        <ele>1142.66</ele>
        <time>2015-02-25T13:07:08Z</time>
      </trkpt>
      <trkpt lat="45.35997" lon="5.77812">
        <ele>1144.11</ele>
        <time>2015-02-25T13:07:17Z</time>
      </trkpt>
      <trkpt lat="45.35993" lon="5.77804">
        <ele>1146.03</ele>
        <time>2015-02-25T13:07:27Z</time>
      </trkpt>
      <trkpt lat="45.3599" lon="5.77795">
        <ele>1147.95</ele>
        <time>2015-02-25T13:07:39Z</time>
      </trkpt>
      <trkpt lat="45.35988" lon="5.77785">
        <ele>1149.39</ele>
        <time>2015-02-25T13:07:51Z</time>
      </trkpt>
      <trkpt lat="45.35984" lon="5.77774">
        <ele>1150.84</ele>
        <time>2015-02-25T13:08:04Z</time>
      </trkpt>
      <trkpt lat="45.35981" lon="5.77758">
        <ele>1153.24</ele>
        <time>2015-02-25T13:08:19Z</time>
      </trkpt>
      <trkpt lat="45.35976" lon="5.77742">
        <ele>1156.6</ele>
        <time>2015-02-25T13:08:37Z</time>
      </trkpt>
      <trkpt lat="45.35974" lon="5.77731">
        <ele>1159.49</ele>
        <time>2015-02-25T13:08:55Z</time>
      </trkpt>
      <trkpt lat="45.35969" lon="5.77715">
        <ele>1162.85</ele>
        <time>2015-02-25T13:09:12Z</time>
      </trkpt>
      <trkpt lat="45.35968" lon="5.77708">
        <ele>1163.81</ele>
        <time>2015-02-25T13:09:20Z</time>
      </trkpt>
      <trkpt lat="45.35967" lon="5.77695">
        <ele>1165.26</ele>
        <time>2015-02-25T13:09:33Z</time>
      </trkpt>
      <trkpt lat="45.35967" lon="5.77689">
        <ele>1165.26</ele>
        <time>2015-02-25T13:09:44Z</time>
      </trkpt>
      <trkpt lat="45.35967" lon="5.77685">
        <ele>1165.26</ele>
        <time>2015-02-25T13:09:53Z</time>
      </trkpt>
      <trkpt lat="45.35966" lon="5.77683">
        <ele>1165.74</ele>
        <time>2015-02-25T13:10:04Z</time>
      </trkpt>
      <trkpt lat="45.35964" lon="5.77658">
        <ele>1168.62</ele>
        <time>2015-02-25T13:10:20Z</time>
      </trkpt>
      <trkpt lat="45.3596" lon="5.77641">
        <ele>1171.02</ele>
        <time>2015-02-25T13:10:36Z</time>
      </trkpt>
      <trkpt lat="45.35956" lon="5.77632">
        <ele>1172.95</ele>
        <time>2015-02-25T13:10:48Z</time>
      </trkpt>
      <trkpt lat="45.35954" lon="5.77598">
        <ele>1175.83</ele>
        <time>2015-02-25T13:11:05Z</time>
      </trkpt>
      <trkpt lat="45.35951" lon="5.7758">
        <ele>1177.75</ele>
        <time>2015-02-25T13:11:20Z</time>
      </trkpt>
      <trkpt lat="45.35942" lon="5.77579">
        <ele>1181.12</ele>
        <time>2015-02-25T13:11:36Z</time>
      </trkpt>
      <trkpt lat="45.35935" lon="5.77571">
        <ele>1182.56</ele>
        <time>2015-02-25T13:11:53Z</time>
      </trkpt>
      <trkpt lat="45.35925" lon="5.77568">
        <ele>1184.48</ele>
        <time>2015-02-25T13:12:07Z</time>
      </trkpt>
      <trkpt lat="45.35921" lon="5.7757">
        <ele>1185.92</ele>
        <time>2015-02-25T13:12:22Z</time>
      </trkpt>
      <trkpt lat="45.35913" lon="5.77567">
        <ele>1186.88</ele>
        <time>2015-02-25T13:12:44Z</time>
      </trkpt>
      <trkpt lat="45.35907" lon="5.77557">
        <ele>1189.29</ele>
        <time>2015-02-25T13:13:02Z</time>
      </trkpt>
      <trkpt lat="45.35898" lon="5.77552">
        <ele>1192.17</ele>
        <time>2015-02-25T13:13:19Z</time>
      </trkpt>
      <trkpt lat="45.35889" lon="5.77535">
        <ele>1195.06</ele>
        <time>2015-02-25T13:13:37Z</time>
      </trkpt>
      <trkpt lat="45.35886" lon="5.77518">
        <ele>1198.42</ele>
        <time>2015-02-25T13:13:56Z</time>
      </trkpt>
      <trkpt lat="45.35881" lon="5.77501">
        <ele>1200.82</ele>
        <time>2015-02-25T13:14:14Z</time>
      </trkpt>
      <trkpt lat="45.35878" lon="5.77491">
        <ele>1202.27</ele>
        <time>2015-02-25T13:14:30Z</time>
      </trkpt>
      <trkpt lat="45.35873" lon="5.77499">
        <ele>1202.27</ele>
        <time>2015-02-25T13:14:53Z</time>
      </trkpt>
      <trkpt lat="45.35872" lon="5.77486">
        <ele>1204.67</ele>
        <time>2015-02-25T13:15:16Z</time>
      </trkpt>
      <trkpt lat="45.35871" lon="5.77468">
        <ele>1207.55</ele>
        <time>2015-02-25T13:15:32Z</time>
      </trkpt>
      <trkpt lat="45.3587" lon="5.77455">
        <ele>1210.92</ele>
        <time>2015-02-25T13:15:48Z</time>
      </trkpt>
      <trkpt lat="45.35865" lon="5.77434">
        <ele>1214.28</ele>
        <time>2015-02-25T13:16:08Z</time>
      </trkpt>
      <trkpt lat="45.3587" lon="5.77413">
        <ele>1217.17</ele>
        <time>2015-02-25T13:16:25Z</time>
      </trkpt>
      <trkpt lat="45.35872" lon="5.77396">
        <ele>1218.13</ele>
        <time>2015-02-25T13:16:37Z</time>
      </trkpt>
      <trkpt lat="45.35878" lon="5.77365">
        <ele>1221.49</ele>
        <time>2015-02-25T13:17:04Z</time>
      </trkpt>
      <trkpt lat="45.35878" lon="5.7735">
        <ele>1224.38</ele>
        <time>2015-02-25T13:17:23Z</time>
      </trkpt>
      <trkpt lat="45.35883" lon="5.77332">
        <ele>1227.26</ele>
        <time>2015-02-25T13:17:42Z</time>
      </trkpt>
      <trkpt lat="45.35885" lon="5.77315">
        <ele>1230.14</ele>
        <time>2015-02-25T13:18:01Z</time>
      </trkpt>
      <trkpt lat="45.35889" lon="5.77292">
        <ele>1233.51</ele>
        <time>2015-02-25T13:18:22Z</time>
      </trkpt>
      <trkpt lat="45.35894" lon="5.77265">
        <ele>1236.39</ele>
        <time>2015-02-25T13:18:43Z</time>
      </trkpt>
      <trkpt lat="45.35896" lon="5.7724">
        <ele>1238.8</ele>
        <time>2015-02-25T13:19:06Z</time>
      </trkpt>
      <trkpt lat="45.35901" lon="5.77218">
        <ele>1241.68</ele>
        <time>2015-02-25T13:19:26Z</time>
      </trkpt>
      <trkpt lat="45.35907" lon="5.77197">
        <ele>1245.04</ele>
        <time>2015-02-25T13:19:48Z</time>
      </trkpt>
      <trkpt lat="45.35914" lon="5.77185">
        <ele>1247.93</ele>
        <time>2015-02-25T13:20:05Z</time>
      </trkpt>
      <trkpt lat="45.35915" lon="5.77169">
        <ele>1250.81</ele>
        <time>2015-02-25T13:20:22Z</time>
      </trkpt>
      <trkpt lat="45.35926" lon="5.77156">
        <ele>1254.18</ele>
        <time>2015-02-25T13:20:38Z</time>
      </trkpt>
      <trkpt lat="45.35937" lon="5.77145">
        <ele>1257.06</ele>
        <time>2015-02-25T13:20:57Z</time>
      </trkpt>
      <trkpt lat="45.35941" lon="5.77138">
        <ele>1259.94</ele>
        <time>2015-02-25T13:21:15Z</time>
      </trkpt>
      <trkpt lat="45.35946" lon="5.77128">
        <ele>1260.43</ele>
        <time>2015-02-25T13:21:47Z</time>
      </trkpt>
      <trkpt lat="45.35956" lon="5.77131">
        <ele>1262.35</ele>
        <time>2015-02-25T13:22:29Z</time>
      </trkpt>
      <trkpt lat="45.35968" lon="5.77134">
        <ele>1265.71</ele>
        <time>2015-02-25T13:22:42Z</time>
      </trkpt>
      <trkpt lat="45.35975" lon="5.77138">
        <ele>1269.08</ele>
        <time>2015-02-25T13:22:55Z</time>
      </trkpt>
      <trkpt lat="45.35982" lon="5.77141">
        <ele>1271.96</ele>
        <time>2015-02-25T13:23:11Z</time>
      </trkpt>
      <trkpt lat="45.35991" lon="5.77144">
        <ele>1275.33</ele>
        <time>2015-02-25T13:23:26Z</time>
      </trkpt>
      <trkpt lat="45.35998" lon="5.77147">
        <ele>1278.21</ele>
        <time>2015-02-25T13:23:40Z</time>
      </trkpt>
      <trkpt lat="45.36007" lon="5.77152">
        <ele>1281.09</ele>
        <time>2015-02-25T13:23:57Z</time>
      </trkpt>
      <trkpt lat="45.36012" lon="5.77156">
        <ele>1284.46</ele>
        <time>2015-02-25T13:24:09Z</time>
      </trkpt>
      <trkpt lat="45.36024" lon="5.77156">
        <ele>1287.82</ele>
        <time>2015-02-25T13:24:29Z</time>
      </trkpt>
      <trkpt lat="45.36037" lon="5.77157">
        <ele>1290.71</ele>
        <time>2015-02-25T13:24:48Z</time>
      </trkpt>
      <trkpt lat="45.36051" lon="5.77159">
        <ele>1294.07</ele>
        <time>2015-02-25T13:25:07Z</time>
      </trkpt>
      <trkpt lat="45.36061" lon="5.77157">
        <ele>1296.96</ele>
        <time>2015-02-25T13:25:23Z</time>
      </trkpt>
      <trkpt lat="45.36062" lon="5.77157">
        <ele>1296.96</ele>
        <time>2015-02-25T13:25:24Z</time>
      </trkpt>
      <trkpt lat="45.36075" lon="5.77157">
        <ele>1300.32</ele>
        <time>2015-02-25T13:25:42Z</time>
      </trkpt>
      <trkpt lat="45.3609" lon="5.77156">
        <ele>1303.2</ele>
        <time>2015-02-25T13:26:03Z</time>
      </trkpt>
      <trkpt lat="45.36096" lon="5.7715">
        <ele>1304.65</ele>
        <time>2015-02-25T13:26:30Z</time>
      </trkpt>
      <trkpt lat="45.36111" lon="5.77154">
        <ele>1308.01</ele>
        <time>2015-02-25T13:26:52Z</time>
      </trkpt>
      <trkpt lat="45.36119" lon="5.77158">
        <ele>1310.9</ele>
        <time>2015-02-25T13:27:04Z</time>
      </trkpt>
      <trkpt lat="45.36134" lon="5.77159">
        <ele>1314.26</ele>
        <time>2015-02-25T13:27:25Z</time>
      </trkpt>
      <trkpt lat="45.36151" lon="5.77153">
        <ele>1316.66</ele>
        <time>2015-02-25T13:27:51Z</time>
      </trkpt>
      <trkpt lat="45.36171" lon="5.77151">
        <ele>1318.59</ele>
        <time>2015-02-25T13:28:17Z</time>
      </trkpt>
      <trkpt lat="45.36185" lon="5.77158">
        <ele>1320.99</ele>
        <time>2015-02-25T13:28:38Z</time>
      </trkpt>
      <trkpt lat="45.36204" lon="5.77168">
        <ele>1323.39</ele>
        <time>2015-02-25T13:29:02Z</time>
      </trkpt>
      <trkpt lat="45.36221" lon="5.77179">
        <ele>1326.28</ele>
        <time>2015-02-25T13:29:24Z</time>
      </trkpt>
      <trkpt lat="45.36228" lon="5.77179">
        <ele>1326.76</ele>
        <time>2015-02-25T13:29:31Z</time>
      </trkpt>
      <trkpt lat="45.36246" lon="5.77172">
        <ele>1326.76</ele>
        <time>2015-02-25T13:29:55Z</time>
      </trkpt>
      <trkpt lat="45.36264" lon="5.77182">
        <ele>1329.16</ele>
        <time>2015-02-25T13:30:13Z</time>
      </trkpt>
      <trkpt lat="45.36268" lon="5.77187">
        <ele>1330.6</ele>
        <time>2015-02-25T13:30:33Z</time>
      </trkpt>
      <trkpt lat="45.36277" lon="5.77194">
        <ele>1333.01</ele>
        <time>2015-02-25T13:30:57Z</time>
      </trkpt>
      <trkpt lat="45.36283" lon="5.77194">
        <ele>1335.89</ele>
        <time>2015-02-25T13:31:29Z</time>
      </trkpt>
      <trkpt lat="45.36303" lon="5.77193">
        <ele>1338.29</ele>
        <time>2015-02-25T13:31:48Z</time>
      </trkpt>
      <trkpt lat="45.36304" lon="5.77189">
        <ele>1339.73</ele>
        <time>2015-02-25T13:32:07Z</time>
      </trkpt>
      <trkpt lat="45.36313" lon="5.77189">
        <ele>1339.73</ele>
        <time>2015-02-25T13:32:37Z</time>
      </trkpt>
      <trkpt lat="45.36337" lon="5.77173">
        <ele>1340.22</ele>
        <time>2015-02-25T13:32:57Z</time>
      </trkpt>
      <trkpt lat="45.36342" lon="5.7717">
        <ele>1339.73</ele>
        <time>2015-02-25T13:33:01Z</time>
      </trkpt>
      <trkpt lat="45.36344" lon="5.7717">
        <ele>1339.73</ele>
        <time>2015-02-25T13:33:03Z</time>
      </trkpt>
      <trkpt lat="45.36358" lon="5.77165">
        <ele>1341.18</ele>
        <time>2015-02-25T13:33:18Z</time>
      </trkpt>
      <trkpt lat="45.36373" lon="5.77161">
        <ele>1344.06</ele>
        <time>2015-02-25T13:33:36Z</time>
      </trkpt>
      <trkpt lat="45.36396" lon="5.77151">
        <ele>1345.5</ele>
        <time>2015-02-25T13:33:58Z</time>
      </trkpt>
      <trkpt lat="45.36405" lon="5.77148">
        <ele>1345.02</ele>
        <time>2015-02-25T13:34:07Z</time>
      </trkpt>
      <trkpt lat="45.36425" lon="5.77142">
        <ele>1346.94</ele>
        <time>2015-02-25T13:34:30Z</time>
      </trkpt>
      <trkpt lat="45.36445" lon="5.77138">
        <ele>1348.87</ele>
        <time>2015-02-25T13:34:51Z</time>
      </trkpt>
      <trkpt lat="45.36446" lon="5.77138">
        <ele>1349.35</ele>
        <time>2015-02-25T13:34:52Z</time>
      </trkpt>
      <trkpt lat="45.36458" lon="5.77129">
        <ele>1351.75</ele>
        <time>2015-02-25T13:35:11Z</time>
      </trkpt>
      <trkpt lat="45.36472" lon="5.77114">
        <ele>1353.67</ele>
        <time>2015-02-25T13:35:32Z</time>
      </trkpt>
      <trkpt lat="45.36486" lon="5.77107">
        <ele>1356.08</ele>
        <time>2015-02-25T13:35:51Z</time>
      </trkpt>
      <trkpt lat="45.36498" lon="5.77096">
        <ele>1358.96</ele>
        <time>2015-02-25T13:36:13Z</time>
      </trkpt>
      <trkpt lat="45.36511" lon="5.77077">
        <ele>1361.36</ele>
        <time>2015-02-25T13:36:35Z</time>
      </trkpt>
      <trkpt lat="45.36525" lon="5.77063">
        <ele>1363.77</ele>
        <time>2015-02-25T13:36:59Z</time>
      </trkpt>
      <trkpt lat="45.36534" lon="5.77057">
        <ele>1367.13</ele>
        <time>2015-02-25T13:37:15Z</time>
      </trkpt>
      <trkpt lat="45.36543" lon="5.77049">
        <ele>1370.02</ele>
        <time>2015-02-25T13:37:31Z</time>
      </trkpt>
      <trkpt lat="45.36554" lon="5.7705">
        <ele>1373.38</ele>
        <time>2015-02-25T13:37:46Z</time>
      </trkpt>
      <trkpt lat="45.36567" lon="5.77054">
        <ele>1376.26</ele>
        <time>2015-02-25T13:38:05Z</time>
      </trkpt>
      <trkpt lat="45.36578" lon="5.77058">
        <ele>1379.63</ele>
        <time>2015-02-25T13:38:23Z</time>
      </trkpt>
      <trkpt lat="45.36593" lon="5.77063">
        <ele>1382.51</ele>
        <time>2015-02-25T13:38:44Z</time>
      </trkpt>
      <trkpt lat="45.36603" lon="5.77072">
        <ele>1385.88</ele>
        <time>2015-02-25T13:39:00Z</time>
      </trkpt>
      <trkpt lat="45.36612" lon="5.77076">
        <ele>1388.76</ele>
        <time>2015-02-25T13:39:19Z</time>
      </trkpt>
      <trkpt lat="45.36621" lon="5.7708">
        <ele>1392.13</ele>
        <time>2015-02-25T13:39:37Z</time>
      </trkpt>
      <trkpt lat="45.36629" lon="5.77077">
        <ele>1395.01</ele>
        <time>2015-02-25T13:39:53Z</time>
      </trkpt>
      <trkpt lat="45.36641" lon="5.77082">
        <ele>1398.37</ele>
        <time>2015-02-25T13:40:10Z</time>
      </trkpt>
      <trkpt lat="45.36652" lon="5.77084">
        <ele>1399.82</ele>
        <time>2015-02-25T13:40:38Z</time>
      </trkpt>
      <trkpt lat="45.36661" lon="5.77089">
        <ele>1402.22</ele>
        <time>2015-02-25T13:41:24Z</time>
      </trkpt>
      <trkpt lat="45.36667" lon="5.77088">
        <ele>1403.18</ele>
        <time>2015-02-25T13:41:32Z</time>
      </trkpt>
      <trkpt lat="45.36681" lon="5.77075">
        <ele>1400.78</ele>
        <time>2015-02-25T13:41:47Z</time>
      </trkpt>
      <trkpt lat="45.36699" lon="5.77074">
        <ele>1402.22</ele>
        <time>2015-02-25T13:42:06Z</time>
      </trkpt>
      <trkpt lat="45.36708" lon="5.77062">
        <ele>1403.66</ele>
        <time>2015-02-25T13:42:22Z</time>
      </trkpt>
      <trkpt lat="45.36725" lon="5.77045">
        <ele>1405.1</ele>
        <time>2015-02-25T13:42:49Z</time>
      </trkpt>
      <trkpt lat="45.3673" lon="5.77035">
        <ele>1405.58</ele>
        <time>2015-02-25T13:43:04Z</time>
      </trkpt>
      <trkpt lat="45.36736" lon="5.77006">
        <ele>1405.1</ele>
        <time>2015-02-25T13:43:26Z</time>
      </trkpt>
      <trkpt lat="45.36745" lon="5.76992">
        <ele>1406.07</ele>
        <time>2015-02-25T13:43:38Z</time>
      </trkpt>
      <trkpt lat="45.36749" lon="5.76989">
        <ele>1407.03</ele>
        <time>2015-02-25T13:43:43Z</time>
      </trkpt>
      <trkpt lat="45.36757" lon="5.76984">
        <ele>1407.03</ele>
        <time>2015-02-25T13:43:54Z</time>
      </trkpt>
      <trkpt lat="45.3676" lon="5.76987">
        <ele>1407.99</ele>
        <time>2015-02-25T13:44:15Z</time>
      </trkpt>
      <trkpt lat="45.36764" lon="5.76981">
        <ele>1407.51</ele>
        <time>2015-02-25T13:44:23Z</time>
      </trkpt>
      <trkpt lat="45.36774" lon="5.76956">
        <ele>1404.62</ele>
        <time>2015-02-25T13:44:33Z</time>
      </trkpt>
      <trkpt lat="45.36779" lon="5.76938">
        <ele>1401.26</ele>
        <time>2015-02-25T13:44:37Z</time>
      </trkpt>
      <trkpt lat="45.36783" lon="5.76926">
        <ele>1398.86</ele>
        <time>2015-02-25T13:44:41Z</time>
      </trkpt>
      <trkpt lat="45.36787" lon="5.76913">
        <ele>1395.97</ele>
        <time>2015-02-25T13:44:56Z</time>
      </trkpt>
      <trkpt lat="45.36786" lon="5.76897">
        <ele>1395.01</ele>
        <time>2015-02-25T13:45:02Z</time>
      </trkpt>
      <trkpt lat="45.36792" lon="5.7689">
        <ele>1394.05</ele>
        <time>2015-02-25T13:45:16Z</time>
      </trkpt>
      <trkpt lat="45.36792" lon="5.76884">
        <ele>1394.05</ele>
        <time>2015-02-25T13:45:21Z</time>
      </trkpt>
      <trkpt lat="45.36798" lon="5.76875">
        <ele>1394.53</ele>
        <time>2015-02-25T13:45:38Z</time>
      </trkpt>
      <trkpt lat="45.36793" lon="5.7687">
        <ele>1393.57</ele>
        <time>2015-02-25T13:46:18Z</time>
      </trkpt>
      <trkpt lat="45.36793" lon="5.76867">
        <ele>1393.09</ele>
        <time>2015-02-25T13:46:47Z</time>
      </trkpt>
      <trkpt lat="45.3681" lon="5.76859">
        <ele>1393.09</ele>
        <time>2015-02-25T13:47:25Z</time>
      </trkpt>
      <trkpt lat="45.3682" lon="5.7685">
        <ele>1391.17</ele>
        <time>2015-02-25T13:47:40Z</time>
      </trkpt>
      <trkpt lat="45.36814" lon="5.76831">
        <ele>1388.76</ele>
        <time>2015-02-25T13:47:51Z</time>
      </trkpt>
      <trkpt lat="45.36811" lon="5.76818">
        <ele>1386.36</ele>
        <time>2015-02-25T13:48:02Z</time>
      </trkpt>
      <trkpt lat="45.36814" lon="5.76808">
        <ele>1386.36</ele>
        <time>2015-02-25T13:48:23Z</time>
      </trkpt>
      <trkpt lat="45.36823" lon="5.76808">
        <ele>1388.76</ele>
        <time>2015-02-25T13:48:52Z</time>
      </trkpt>
      <trkpt lat="45.36833" lon="5.76801">
        <ele>1388.28</ele>
        <time>2015-02-25T13:49:34Z</time>
      </trkpt>
      <trkpt lat="45.36832" lon="5.76802">
        <ele>1388.28</ele>
        <time>2015-02-25T13:49:57Z</time>
      </trkpt>
      <trkpt lat="45.36834" lon="5.76807">
        <ele>1388.28</ele>
        <time>2015-02-25T13:50:12Z</time>
      </trkpt>
      <trkpt lat="45.36833" lon="5.76797">
        <ele>1387.8</ele>
        <time>2015-02-25T13:50:30Z</time>
      </trkpt>
      <trkpt lat="45.36829" lon="5.768">
        <ele>1388.28</ele>
        <time>2015-02-25T13:50:50Z</time>
      </trkpt>
      <trkpt lat="45.36823" lon="5.768">
        <ele>1389.24</ele>
        <time>2015-02-25T13:51:19Z</time>
      </trkpt>
      <trkpt lat="45.36837" lon="5.76805">
        <ele>1388.76</ele>
        <time>2015-02-25T13:51:41Z</time>
      </trkpt>
      <trkpt lat="45.36832" lon="5.76799">
        <ele>1389.24</ele>
        <time>2015-02-25T13:52:10Z</time>
      </trkpt>
      <trkpt lat="45.3683" lon="5.76822">
        <ele>1389.72</ele>
        <time>2015-02-25T13:52:24Z</time>
      </trkpt>
      <trkpt lat="45.36832" lon="5.7685">
        <ele>1391.65</ele>
        <time>2015-02-25T13:52:48Z</time>
      </trkpt>
      <trkpt lat="45.3684" lon="5.76845">
        <ele>1394.53</ele>
        <time>2015-02-25T13:53:08Z</time>
      </trkpt>
      <trkpt lat="45.3685" lon="5.76846">
        <ele>1397.41</ele>
        <time>2015-02-25T13:53:23Z</time>
      </trkpt>
      <trkpt lat="45.36856" lon="5.76846">
        <ele>1398.37</ele>
        <time>2015-02-25T13:53:41Z</time>
      </trkpt>
      <trkpt lat="45.36873" lon="5.76868">
        <ele>1401.26</ele>
        <time>2015-02-25T13:54:15Z</time>
      </trkpt>
      <trkpt lat="45.36879" lon="5.76895">
        <ele>1404.62</ele>
        <time>2015-02-25T13:54:41Z</time>
      </trkpt>
      <trkpt lat="45.36876" lon="5.76906">
        <ele>1405.1</ele>
        <time>2015-02-25T13:55:35Z</time>
      </trkpt>
      <trkpt lat="45.36866" lon="5.76914">
        <ele>1407.99</ele>
        <time>2015-02-25T13:56:37Z</time>
      </trkpt>
      <trkpt lat="45.36865" lon="5.76918">
        <ele>1410.87</ele>
        <time>2015-02-25T13:56:53Z</time>
      </trkpt>
      <trkpt lat="45.36861" lon="5.76927">
        <ele>1414.24</ele>
        <time>2015-02-25T13:57:12Z</time>
      </trkpt>
      <trkpt lat="45.36849" lon="5.76955">
        <ele>1414.72</ele>
        <time>2015-02-25T13:57:44Z</time>
      </trkpt>
      <trkpt lat="45.36839" lon="5.76952">
        <ele>1415.2</ele>
        <time>2015-02-25T13:58:04Z</time>
      </trkpt>
      <trkpt lat="45.36831" lon="5.76963">
        <ele>1414.72</ele>
        <time>2015-02-25T13:59:11Z</time>
      </trkpt>
      <trkpt lat="45.36828" lon="5.76994">
        <ele>1416.16</ele>
        <time>2015-02-25T13:59:39Z</time>
      </trkpt>
      <trkpt lat="45.36831" lon="5.77008">
        <ele>1419.04</ele>
        <time>2015-02-25T14:00:01Z</time>
      </trkpt>
      <trkpt lat="45.36831" lon="5.77026">
        <ele>1422.41</ele>
        <time>2015-02-25T14:00:21Z</time>
      </trkpt>
      <trkpt lat="45.36829" lon="5.77053">
        <ele>1425.29</ele>
        <time>2015-02-25T14:00:53Z</time>
      </trkpt>
      <trkpt lat="45.36828" lon="5.77071">
        <ele>1427.7</ele>
        <time>2015-02-25T14:01:16Z</time>
      </trkpt>
      <trkpt lat="45.36833" lon="5.77081">
        <ele>1430.1</ele>
        <time>2015-02-25T14:01:37Z</time>
      </trkpt>
      <trkpt lat="45.36841" lon="5.77103">
        <ele>1432.5</ele>
        <time>2015-02-25T14:02:03Z</time>
      </trkpt>
      <trkpt lat="45.36839" lon="5.77123">
        <ele>1435.39</ele>
        <time>2015-02-25T14:02:25Z</time>
      </trkpt>
      <trkpt lat="45.36839" lon="5.77125">
        <ele>1436.83</ele>
        <time>2015-02-25T14:02:40Z</time>
      </trkpt>
      <trkpt lat="45.36848" lon="5.77133">
        <ele>1439.71</ele>
        <time>2015-02-25T14:03:07Z</time>
      </trkpt>
      <trkpt lat="45.36853" lon="5.77134">
        <ele>1443.08</ele>
        <time>2015-02-25T14:03:24Z</time>
      </trkpt>
      <trkpt lat="45.36848" lon="5.77144">
        <ele>1444.52</ele>
        <time>2015-02-25T14:05:20Z</time>
      </trkpt>
      <trkpt lat="45.36841" lon="5.77146">
        <ele>1445.96</ele>
        <time>2015-02-25T14:05:40Z</time>
      </trkpt>
      <trkpt lat="45.36832" lon="5.77153">
        <ele>1448.84</ele>
        <time>2015-02-25T14:06:11Z</time>
      </trkpt>
      <trkpt lat="45.36828" lon="5.77165">
        <ele>1451.73</ele>
        <time>2015-02-25T14:06:28Z</time>
      </trkpt>
      <trkpt lat="45.36823" lon="5.77171">
        <ele>1454.61</ele>
        <time>2015-02-25T14:06:51Z</time>
      </trkpt>
      <trkpt lat="45.36833" lon="5.77169">
        <ele>1455.57</ele>
        <time>2015-02-25T14:07:14Z</time>
      </trkpt>
      <trkpt lat="45.36842" lon="5.77174">
        <ele>1457.98</ele>
        <time>2015-02-25T14:07:39Z</time>
      </trkpt>
      <trkpt lat="45.36846" lon="5.77174">
        <ele>1460.38</ele>
        <time>2015-02-25T14:08:00Z</time>
      </trkpt>
      <trkpt lat="45.36853" lon="5.77187">
        <ele>1463.26</ele>
        <time>2015-02-25T14:08:41Z</time>
      </trkpt>
      <trkpt lat="45.36855" lon="5.77202">
        <ele>1466.63</ele>
        <time>2015-02-25T14:09:03Z</time>
      </trkpt>
      <trkpt lat="45.36859" lon="5.77211">
        <ele>1468.55</ele>
        <time>2015-02-25T14:09:27Z</time>
      </trkpt>
      <trkpt lat="45.36857" lon="5.7722">
        <ele>1470.47</ele>
        <time>2015-02-25T14:09:45Z</time>
      </trkpt>
      <trkpt lat="45.36841" lon="5.77206">
        <ele>1471.92</ele>
        <time>2015-02-25T14:12:37Z</time>
      </trkpt>
      <trkpt lat="45.36836" lon="5.77213">
        <ele>1474.32</ele>
        <time>2015-02-25T14:12:54Z</time>
      </trkpt>
      <trkpt lat="45.36832" lon="5.77213">
        <ele>1475.76</ele>
        <time>2015-02-25T14:13:07Z</time>
      </trkpt>
      <trkpt lat="45.36831" lon="5.77215">
        <ele>1478.65</ele>
        <time>2015-02-25T14:13:36Z</time>
      </trkpt>
      <trkpt lat="45.36839" lon="5.77223">
        <ele>1481.05</ele>
        <time>2015-02-25T14:13:55Z</time>
      </trkpt>
      <trkpt lat="45.36835" lon="5.77228">
        <ele>1482.97</ele>
        <time>2015-02-25T14:14:14Z</time>
      </trkpt>
      <trkpt lat="45.36828" lon="5.77228">
        <ele>1483.93</ele>
        <time>2015-02-25T14:15:17Z</time>
      </trkpt>
      <trkpt lat="45.36823" lon="5.77233">
        <ele>1485.37</ele>
        <time>2015-02-25T14:15:37Z</time>
      </trkpt>
      <trkpt lat="45.36818" lon="5.7724">
        <ele>1486.82</ele>
        <time>2015-02-25T14:16:31Z</time>
      </trkpt>
      <trkpt lat="45.36825" lon="5.77243">
        <ele>1488.74</ele>
        <time>2015-02-25T14:17:12Z</time>
      </trkpt>
      <trkpt lat="45.36825" lon="5.77249">
        <ele>1491.14</ele>
        <time>2015-02-25T14:17:50Z</time>
      </trkpt>
      <trkpt lat="45.36823" lon="5.77252">
        <ele>1494.03</ele>
        <time>2015-02-25T14:18:35Z</time>
      </trkpt>
      <trkpt lat="45.36817" lon="5.77262">
        <ele>1495.47</ele>
        <time>2015-02-25T14:18:50Z</time>
      </trkpt>
      <trkpt lat="45.36814" lon="5.7727">
        <ele>1497.39</ele>
        <time>2015-02-25T14:19:09Z</time>
      </trkpt>
      <trkpt lat="45.36803" lon="5.77268">
        <ele>1495.47</ele>
        <time>2015-02-25T14:25:08Z</time>
      </trkpt>
      <trkpt lat="45.36803" lon="5.77272">
        <ele>1494.99</ele>
        <time>2015-02-25T14:28:06Z</time>
      </trkpt>
      <trkpt lat="45.36805" lon="5.77267">
        <ele>1495.47</ele>
        <time>2015-02-25T14:28:35Z</time>
      </trkpt>
      <trkpt lat="45.36805" lon="5.77261">
        <ele>1494.99</ele>
        <time>2015-02-25T14:31:23Z</time>
      </trkpt>
      <trkpt lat="45.36797" lon="5.7725">
        <ele>1492.1</ele>
        <time>2015-02-25T14:31:27Z</time>
      </trkpt>
      <trkpt lat="45.36796" lon="5.77235">
        <ele>1486.82</ele>
        <time>2015-02-25T14:31:29Z</time>
      </trkpt>
      <trkpt lat="45.36797" lon="5.77231">
        <ele>1483.45</ele>
        <time>2015-02-25T14:31:30Z</time>
      </trkpt>
      <trkpt lat="45.36798" lon="5.77227">
        <ele>1479.13</ele>
        <time>2015-02-25T14:31:32Z</time>
      </trkpt>
      <trkpt lat="45.36803" lon="5.77217">
        <ele>1474.8</ele>
        <time>2015-02-25T14:31:42Z</time>
      </trkpt>
      <trkpt lat="45.36807" lon="5.77201">
        <ele>1471.44</ele>
        <time>2015-02-25T14:31:46Z</time>
      </trkpt>
      <trkpt lat="45.36808" lon="5.77199">
        <ele>1471.44</ele>
        <time>2015-02-25T14:31:47Z</time>
      </trkpt>
      <trkpt lat="45.36807" lon="5.77202">
        <ele>1468.07</ele>
        <time>2015-02-25T14:31:49Z</time>
      </trkpt>
      <trkpt lat="45.36806" lon="5.77201">
        <ele>1466.63</ele>
        <time>2015-02-25T14:31:52Z</time>
      </trkpt>
      <trkpt lat="45.36805" lon="5.77183">
        <ele>1462.78</ele>
        <time>2015-02-25T14:31:55Z</time>
      </trkpt>
      <trkpt lat="45.36803" lon="5.77174">
        <ele>1457.02</ele>
        <time>2015-02-25T14:31:57Z</time>
      </trkpt>
      <trkpt lat="45.368" lon="5.7717">
        <ele>1457.5</ele>
        <time>2015-02-25T14:31:58Z</time>
      </trkpt>
      <trkpt lat="45.36789" lon="5.77162">
        <ele>1449.81</ele>
        <time>2015-02-25T14:32:01Z</time>
      </trkpt>
      <trkpt lat="45.3678" lon="5.77161">
        <ele>1446.44</ele>
        <time>2015-02-25T14:32:03Z</time>
      </trkpt>
      <trkpt lat="45.36773" lon="5.77156">
        <ele>1443.08</ele>
        <time>2015-02-25T14:32:05Z</time>
      </trkpt>
      <trkpt lat="45.36769" lon="5.77148">
        <ele>1439.23</ele>
        <time>2015-02-25T14:32:07Z</time>
      </trkpt>
      <trkpt lat="45.36767" lon="5.77137">
        <ele>1436.83</ele>
        <time>2015-02-25T14:32:09Z</time>
      </trkpt>
      <trkpt lat="45.36764" lon="5.77129">
        <ele>1432.5</ele>
        <time>2015-02-25T14:32:11Z</time>
      </trkpt>
      <trkpt lat="45.36758" lon="5.77123">
        <ele>1428.18</ele>
        <time>2015-02-25T14:32:13Z</time>
      </trkpt>
      <trkpt lat="45.36753" lon="5.77115">
        <ele>1424.33</ele>
        <time>2015-02-25T14:32:15Z</time>
      </trkpt>
      <trkpt lat="45.36746" lon="5.7711">
        <ele>1420</ele>
        <time>2015-02-25T14:32:17Z</time>
      </trkpt>
      <trkpt lat="45.36742" lon="5.77106">
        <ele>1418.08</ele>
        <time>2015-02-25T14:32:18Z</time>
      </trkpt>
      <trkpt lat="45.36739" lon="5.77096">
        <ele>1416.16</ele>
        <time>2015-02-25T14:32:20Z</time>
      </trkpt>
      <trkpt lat="45.36739" lon="5.77086">
        <ele>1412.31</ele>
        <time>2015-02-25T14:32:22Z</time>
      </trkpt>
      <trkpt lat="45.36738" lon="5.77079">
        <ele>1408.95</ele>
        <time>2015-02-25T14:32:24Z</time>
      </trkpt>
      <trkpt lat="45.36738" lon="5.77074">
        <ele>1406.07</ele>
        <time>2015-02-25T14:32:27Z</time>
      </trkpt>
      <trkpt lat="45.36738" lon="5.77081">
        <ele>1405.58</ele>
        <time>2015-02-25T14:32:45Z</time>
      </trkpt>
      <trkpt lat="45.36738" lon="5.77081">
        <ele>1408.95</ele>
        <time>2015-02-25T14:34:17Z</time>
      </trkpt>
      <trkpt lat="45.36739" lon="5.7708">
        <ele>1408.47</ele>
        <time>2015-02-25T14:34:49Z</time>
      </trkpt>
      <trkpt lat="45.36745" lon="5.77062">
        <ele>1406.07</ele>
        <time>2015-02-25T14:35:02Z</time>
      </trkpt>
      <trkpt lat="45.36746" lon="5.77039">
        <ele>1402.7</ele>
        <time>2015-02-25T14:35:07Z</time>
      </trkpt>
      <trkpt lat="45.36747" lon="5.77036">
        <ele>1402.7</ele>
        <time>2015-02-25T14:35:08Z</time>
      </trkpt>
      <trkpt lat="45.36752" lon="5.77022">
        <ele>1401.74</ele>
        <time>2015-02-25T14:35:16Z</time>
      </trkpt>
      <trkpt lat="45.36758" lon="5.7701">
        <ele>1401.74</ele>
        <time>2015-02-25T14:35:28Z</time>
      </trkpt>
      <trkpt lat="45.36767" lon="5.76997">
        <ele>1402.22</ele>
        <time>2015-02-25T14:35:43Z</time>
      </trkpt>
      <trkpt lat="45.36774" lon="5.7699">
        <ele>1401.74</ele>
        <time>2015-02-25T14:35:53Z</time>
      </trkpt>
      <trkpt lat="45.3678" lon="5.76972">
        <ele>1400.78</ele>
        <time>2015-02-25T14:36:03Z</time>
      </trkpt>
      <trkpt lat="45.36794" lon="5.76935">
        <ele>1398.86</ele>
        <time>2015-02-25T14:36:13Z</time>
      </trkpt>
      <trkpt lat="45.36792" lon="5.76908">
        <ele>1395.01</ele>
        <time>2015-02-25T14:36:17Z</time>
      </trkpt>
      <trkpt lat="45.3679" lon="5.76901">
        <ele>1393.09</ele>
        <time>2015-02-25T14:36:18Z</time>
      </trkpt>
      <trkpt lat="45.36794" lon="5.76879">
        <ele>1389.24</ele>
        <time>2015-02-25T14:36:21Z</time>
      </trkpt>
      <trkpt lat="45.368" lon="5.7687">
        <ele>1387.32</ele>
        <time>2015-02-25T14:36:23Z</time>
      </trkpt>
      <trkpt lat="45.36816" lon="5.76852">
        <ele>1386.36</ele>
        <time>2015-02-25T14:36:32Z</time>
      </trkpt>
      <trkpt lat="45.36815" lon="5.76813">
        <ele>1382.03</ele>
        <time>2015-02-25T14:36:37Z</time>
      </trkpt>
      <trkpt lat="45.36817" lon="5.76809">
        <ele>1381.07</ele>
        <time>2015-02-25T14:36:38Z</time>
      </trkpt>
      <trkpt lat="45.36816" lon="5.76808">
        <ele>1381.07</ele>
        <time>2015-02-25T14:36:56Z</time>
      </trkpt>
      <trkpt lat="45.36816" lon="5.76806">
        <ele>1377.71</ele>
        <time>2015-02-25T14:37:34Z</time>
      </trkpt>
      <trkpt lat="45.36822" lon="5.76804">
        <ele>1374.34</ele>
        <time>2015-02-25T14:37:37Z</time>
      </trkpt>
      <trkpt lat="45.36823" lon="5.76804">
        <ele>1374.34</ele>
        <time>2015-02-25T14:37:38Z</time>
      </trkpt>
      <trkpt lat="45.36827" lon="5.76792">
        <ele>1372.9</ele>
        <time>2015-02-25T14:37:53Z</time>
      </trkpt>
      <trkpt lat="45.3683" lon="5.76795">
        <ele>1371.46</ele>
        <time>2015-02-25T14:38:24Z</time>
      </trkpt>
      <trkpt lat="45.3683" lon="5.76802">
        <ele>1370.5</ele>
        <time>2015-02-25T14:41:44Z</time>
      </trkpt>
      <trkpt lat="45.36821" lon="5.7679">
        <ele>1366.17</ele>
        <time>2015-02-25T14:41:50Z</time>
      </trkpt>
      <trkpt lat="45.3682" lon="5.76782">
        <ele>1361.84</ele>
        <time>2015-02-25T14:41:52Z</time>
      </trkpt>
      <trkpt lat="45.36819" lon="5.76776">
        <ele>1358</ele>
        <time>2015-02-25T14:41:54Z</time>
      </trkpt>
      <trkpt lat="45.36815" lon="5.76769">
        <ele>1354.15</ele>
        <time>2015-02-25T14:41:56Z</time>
      </trkpt>
      <trkpt lat="45.36813" lon="5.76765">
        <ele>1354.15</ele>
        <time>2015-02-25T14:41:57Z</time>
      </trkpt>
      <trkpt lat="45.36808" lon="5.76759">
        <ele>1349.35</ele>
        <time>2015-02-25T14:41:59Z</time>
      </trkpt>
      <trkpt lat="45.36804" lon="5.76752">
        <ele>1345.02</ele>
        <time>2015-02-25T14:42:01Z</time>
      </trkpt>
      <trkpt lat="45.36796" lon="5.76746">
        <ele>1340.7</ele>
        <time>2015-02-25T14:42:03Z</time>
      </trkpt>
      <trkpt lat="45.36792" lon="5.76739">
        <ele>1335.41</ele>
        <time>2015-02-25T14:42:05Z</time>
      </trkpt>
      <trkpt lat="45.36788" lon="5.76733">
        <ele>1330.12</ele>
        <time>2015-02-25T14:42:07Z</time>
      </trkpt>
      <trkpt lat="45.36785" lon="5.76727">
        <ele>1328.2</ele>
        <time>2015-02-25T14:42:09Z</time>
      </trkpt>
      <trkpt lat="45.36782" lon="5.76721">
        <ele>1324.35</ele>
        <time>2015-02-25T14:42:11Z</time>
      </trkpt>
      <trkpt lat="45.36784" lon="5.76715">
        <ele>1320.51</ele>
        <time>2015-02-25T14:42:13Z</time>
      </trkpt>
      <trkpt lat="45.36782" lon="5.76714">
        <ele>1316.66</ele>
        <time>2015-02-25T14:42:15Z</time>
      </trkpt>
      <trkpt lat="45.36782" lon="5.76714">
        <ele>1315.22</ele>
        <time>2015-02-25T14:42:16Z</time>
      </trkpt>
      <trkpt lat="45.36787" lon="5.76713">
        <ele>1311.86</ele>
        <time>2015-02-25T14:42:20Z</time>
      </trkpt>
      <trkpt lat="45.36787" lon="5.76711">
        <ele>1310.9</ele>
        <time>2015-02-25T14:42:24Z</time>
      </trkpt>
      <trkpt lat="45.36786" lon="5.76709">
        <ele>1308.49</ele>
        <time>2015-02-25T14:42:27Z</time>
      </trkpt>
      <trkpt lat="45.36784" lon="5.76704">
        <ele>1304.65</ele>
        <time>2015-02-25T14:42:31Z</time>
      </trkpt>
      <trkpt lat="45.36783" lon="5.76701">
        <ele>1304.17</ele>
        <time>2015-02-25T14:42:33Z</time>
      </trkpt>
      <trkpt lat="45.36777" lon="5.76695">
        <ele>1300.8</ele>
        <time>2015-02-25T14:42:38Z</time>
      </trkpt>
      <trkpt lat="45.36775" lon="5.76693">
        <ele>1297.92</ele>
        <time>2015-02-25T14:42:41Z</time>
      </trkpt>
      <trkpt lat="45.36776" lon="5.76692">
        <ele>1295.99</ele>
        <time>2015-02-25T14:42:43Z</time>
      </trkpt>
      <trkpt lat="45.36772" lon="5.76687">
        <ele>1294.55</ele>
        <time>2015-02-25T14:42:47Z</time>
      </trkpt>
      <trkpt lat="45.36775" lon="5.76687">
        <ele>1293.59</ele>
        <time>2015-02-25T14:42:58Z</time>
      </trkpt>
      <trkpt lat="45.36783" lon="5.76672">
        <ele>1290.23</ele>
        <time>2015-02-25T14:43:05Z</time>
      </trkpt>
      <trkpt lat="45.36778" lon="5.76663">
        <ele>1285.9</ele>
        <time>2015-02-25T14:43:08Z</time>
      </trkpt>
      <trkpt lat="45.36773" lon="5.76661">
        <ele>1285.9</ele>
        <time>2015-02-25T14:43:09Z</time>
      </trkpt>
      <trkpt lat="45.36763" lon="5.76654">
        <ele>1281.57</ele>
        <time>2015-02-25T14:43:11Z</time>
      </trkpt>
      <trkpt lat="45.36749" lon="5.76648">
        <ele>1276.77</ele>
        <time>2015-02-25T14:43:13Z</time>
      </trkpt>
      <trkpt lat="45.36735" lon="5.7664">
        <ele>1269.08</ele>
        <time>2015-02-25T14:43:16Z</time>
      </trkpt>
      <trkpt lat="45.3673" lon="5.76636">
        <ele>1266.19</ele>
        <time>2015-02-25T14:43:17Z</time>
      </trkpt>
      <trkpt lat="45.36718" lon="5.76628">
        <ele>1258.02</ele>
        <time>2015-02-25T14:43:20Z</time>
      </trkpt>
      <trkpt lat="45.36713" lon="5.76625">
        <ele>1258.02</ele>
        <time>2015-02-25T14:43:21Z</time>
      </trkpt>
      <trkpt lat="45.36708" lon="5.76621">
        <ele>1255.62</ele>
        <time>2015-02-25T14:43:22Z</time>
      </trkpt>
      <trkpt lat="45.36715" lon="5.76606">
        <ele>1249.37</ele>
        <time>2015-02-25T14:43:24Z</time>
      </trkpt>
      <trkpt lat="45.36714" lon="5.766">
        <ele>1246.01</ele>
        <time>2015-02-25T14:43:25Z</time>
      </trkpt>
      <trkpt lat="45.36715" lon="5.76594">
        <ele>1242.64</ele>
        <time>2015-02-25T14:43:26Z</time>
      </trkpt>
      <trkpt lat="45.36718" lon="5.76588">
        <ele>1239.76</ele>
        <time>2015-02-25T14:43:27Z</time>
      </trkpt>
      <trkpt lat="45.36725" lon="5.76575">
        <ele>1234.47</ele>
        <time>2015-02-25T14:43:29Z</time>
      </trkpt>
      <trkpt lat="45.36726" lon="5.76571">
        <ele>1230.62</ele>
        <time>2015-02-25T14:43:31Z</time>
      </trkpt>
      <trkpt lat="45.36735" lon="5.76571">
        <ele>1229.66</ele>
        <time>2015-02-25T14:43:33Z</time>
      </trkpt>
      <trkpt lat="45.36746" lon="5.76562">
        <ele>1227.74</ele>
        <time>2015-02-25T14:43:41Z</time>
      </trkpt>
      <trkpt lat="45.36747" lon="5.76563">
        <ele>1230.62</ele>
        <time>2015-02-25T14:45:41Z</time>
      </trkpt>
      <trkpt lat="45.36748" lon="5.76559">
        <ele>1233.99</ele>
        <time>2015-02-25T14:46:55Z</time>
      </trkpt>
      <trkpt lat="45.36746" lon="5.76553">
        <ele>1231.59</ele>
        <time>2015-02-25T14:47:19Z</time>
      </trkpt>
      <trkpt lat="45.36746" lon="5.76551">
        <ele>1231.59</ele>
        <time>2015-02-25T14:47:22Z</time>
      </trkpt>
      <trkpt lat="45.36739" lon="5.76539">
        <ele>1227.26</ele>
        <time>2015-02-25T14:47:27Z</time>
      </trkpt>
      <trkpt lat="45.36736" lon="5.7653">
        <ele>1223.42</ele>
        <time>2015-02-25T14:47:29Z</time>
      </trkpt>
      <trkpt lat="45.36731" lon="5.76524">
        <ele>1221.01</ele>
        <time>2015-02-25T14:47:31Z</time>
      </trkpt>
      <trkpt lat="45.36726" lon="5.76515">
        <ele>1212.36</ele>
        <time>2015-02-25T14:47:34Z</time>
      </trkpt>
      <trkpt lat="45.36724" lon="5.76515">
        <ele>1207.55</ele>
        <time>2015-02-25T14:47:36Z</time>
      </trkpt>
      <trkpt lat="45.36723" lon="5.76509">
        <ele>1203.23</ele>
        <time>2015-02-25T14:47:38Z</time>
      </trkpt>
      <trkpt lat="45.36725" lon="5.765">
        <ele>1199.38</ele>
        <time>2015-02-25T14:47:40Z</time>
      </trkpt>
      <trkpt lat="45.36729" lon="5.76495">
        <ele>1194.58</ele>
        <time>2015-02-25T14:47:42Z</time>
      </trkpt>
      <trkpt lat="45.36732" lon="5.76491">
        <ele>1194.58</ele>
        <time>2015-02-25T14:47:43Z</time>
      </trkpt>
      <trkpt lat="45.36735" lon="5.76484">
        <ele>1189.29</ele>
        <time>2015-02-25T14:47:45Z</time>
      </trkpt>
      <trkpt lat="45.36737" lon="5.76475">
        <ele>1184.48</ele>
        <time>2015-02-25T14:47:47Z</time>
      </trkpt>
      <trkpt lat="45.36738" lon="5.76468">
        <ele>1179.19</ele>
        <time>2015-02-25T14:47:49Z</time>
      </trkpt>
      <trkpt lat="45.36739" lon="5.76459">
        <ele>1173.91</ele>
        <time>2015-02-25T14:47:51Z</time>
      </trkpt>
      <trkpt lat="45.36741" lon="5.76449">
        <ele>1169.1</ele>
        <time>2015-02-25T14:47:53Z</time>
      </trkpt>
      <trkpt lat="45.36742" lon="5.76436">
        <ele>1166.7</ele>
        <time>2015-02-25T14:47:55Z</time>
      </trkpt>
      <trkpt lat="45.36742" lon="5.7643">
        <ele>1163.33</ele>
        <time>2015-02-25T14:47:56Z</time>
      </trkpt>
      <trkpt lat="45.36742" lon="5.76416">
        <ele>1157.56</ele>
        <time>2015-02-25T14:47:58Z</time>
      </trkpt>
      <trkpt lat="45.36741" lon="5.76409">
        <ele>1154.2</ele>
        <time>2015-02-25T14:47:59Z</time>
      </trkpt>
      <trkpt lat="45.3674" lon="5.76402">
        <ele>1151.32</ele>
        <time>2015-02-25T14:48:00Z</time>
      </trkpt>
      <trkpt lat="45.36741" lon="5.76391">
        <ele>1144.59</ele>
        <time>2015-02-25T14:48:02Z</time>
      </trkpt>
      <trkpt lat="45.36741" lon="5.76386">
        <ele>1141.7</ele>
        <time>2015-02-25T14:48:03Z</time>
      </trkpt>
      <trkpt lat="45.36741" lon="5.76383">
        <ele>1138.34</ele>
        <time>2015-02-25T14:48:04Z</time>
      </trkpt>
      <trkpt lat="45.36741" lon="5.76383">
        <ele>1135.45</ele>
        <time>2015-02-25T14:48:05Z</time>
      </trkpt>
      <trkpt lat="45.36746" lon="5.7639">
        <ele>1133.05</ele>
        <time>2015-02-25T14:48:07Z</time>
      </trkpt>
      <trkpt lat="45.36752" lon="5.76394">
        <ele>1129.69</ele>
        <time>2015-02-25T14:48:10Z</time>
      </trkpt>
      <trkpt lat="45.36753" lon="5.76394">
        <ele>1129.21</ele>
        <time>2015-02-25T14:48:11Z</time>
      </trkpt>
      <trkpt lat="45.36753" lon="5.76381">
        <ele>1125.84</ele>
        <time>2015-02-25T14:48:15Z</time>
      </trkpt>
      <trkpt lat="45.36753" lon="5.76368">
        <ele>1123.44</ele>
        <time>2015-02-25T14:48:17Z</time>
      </trkpt>
      <trkpt lat="45.36753" lon="5.76362">
        <ele>1121.03</ele>
        <time>2015-02-25T14:48:18Z</time>
      </trkpt>
      <trkpt lat="45.36749" lon="5.76349">
        <ele>1114.79</ele>
        <time>2015-02-25T14:48:20Z</time>
      </trkpt>
      <trkpt lat="45.36747" lon="5.76338">
        <ele>1109.5</ele>
        <time>2015-02-25T14:48:22Z</time>
      </trkpt>
      <trkpt lat="45.3675" lon="5.76336">
        <ele>1104.21</ele>
        <time>2015-02-25T14:48:24Z</time>
      </trkpt>
      <trkpt lat="45.3675" lon="5.76337">
        <ele>1100.85</ele>
        <time>2015-02-25T14:48:26Z</time>
      </trkpt>
      <trkpt lat="45.3675" lon="5.76337">
        <ele>1102.77</ele>
        <time>2015-02-25T14:48:59Z</time>
      </trkpt>
      <trkpt lat="45.3675" lon="5.76337">
        <ele>1105.65</ele>
        <time>2015-02-25T14:50:17Z</time>
      </trkpt>
      <trkpt lat="45.3675" lon="5.76337">
        <ele>1109.02</ele>
        <time>2015-02-25T14:51:21Z</time>
      </trkpt>
      <trkpt lat="45.3675" lon="5.76337">
        <ele>1109.98</ele>
        <time>2015-02-25T14:51:41Z</time>
      </trkpt>
      <trkpt lat="45.3676" lon="5.76334">
        <ele>1108.54</ele>
        <time>2015-02-25T14:51:45Z</time>
      </trkpt>
      <trkpt lat="45.36762" lon="5.76324">
        <ele>1103.25</ele>
        <time>2015-02-25T14:51:48Z</time>
      </trkpt>
      <trkpt lat="45.36764" lon="5.76316">
        <ele>1098.44</ele>
        <time>2015-02-25T14:51:50Z</time>
      </trkpt>
      <trkpt lat="45.36766" lon="5.76318">
        <ele>1096.52</ele>
        <time>2015-02-25T14:51:52Z</time>
      </trkpt>
      <trkpt lat="45.36769" lon="5.76318">
        <ele>1094.6</ele>
        <time>2015-02-25T14:51:55Z</time>
      </trkpt>
      <trkpt lat="45.36768" lon="5.76318">
        <ele>1092.68</ele>
        <time>2015-02-25T14:52:10Z</time>
      </trkpt>
      <trkpt lat="45.3676" lon="5.76298">
        <ele>1089.31</ele>
        <time>2015-02-25T14:52:14Z</time>
      </trkpt>
      <trkpt lat="45.36759" lon="5.76287">
        <ele>1084.5</ele>
        <time>2015-02-25T14:52:16Z</time>
      </trkpt>
      <trkpt lat="45.36758" lon="5.76275">
        <ele>1078.74</ele>
        <time>2015-02-25T14:52:18Z</time>
      </trkpt>
      <trkpt lat="45.36758" lon="5.76266">
        <ele>1073.45</ele>
        <time>2015-02-25T14:52:20Z</time>
      </trkpt>
      <trkpt lat="45.36756" lon="5.76255">
        <ele>1068.64</ele>
        <time>2015-02-25T14:52:22Z</time>
      </trkpt>
      <trkpt lat="45.36755" lon="5.76242">
        <ele>1063.36</ele>
        <time>2015-02-25T14:52:24Z</time>
      </trkpt>
      <trkpt lat="45.36754" lon="5.7623">
        <ele>1060.95</ele>
        <time>2015-02-25T14:52:26Z</time>
      </trkpt>
      <trkpt lat="45.36755" lon="5.7622">
        <ele>1055.67</ele>
        <time>2015-02-25T14:52:28Z</time>
      </trkpt>
      <trkpt lat="45.36755" lon="5.76209">
        <ele>1051.34</ele>
        <time>2015-02-25T14:52:30Z</time>
      </trkpt>
      <trkpt lat="45.36753" lon="5.76199">
        <ele>1047.01</ele>
        <time>2015-02-25T14:52:32Z</time>
      </trkpt>
      <trkpt lat="45.3675" lon="5.76189">
        <ele>1042.21</ele>
        <time>2015-02-25T14:52:34Z</time>
      </trkpt>
      <trkpt lat="45.3675" lon="5.76179">
        <ele>1036.92</ele>
        <time>2015-02-25T14:52:36Z</time>
      </trkpt>
      <trkpt lat="45.3675" lon="5.76174">
        <ele>1036.92</ele>
        <time>2015-02-25T14:52:37Z</time>
      </trkpt>
      <trkpt lat="45.3675" lon="5.76168">
        <ele>1034.04</ele>
        <time>2015-02-25T14:52:38Z</time>
      </trkpt>
      <trkpt lat="45.36747" lon="5.76159">
        <ele>1028.75</ele>
        <time>2015-02-25T14:52:40Z</time>
      </trkpt>
      <trkpt lat="45.36746" lon="5.76156">
        <ele>1023.94</ele>
        <time>2015-02-25T14:52:42Z</time>
      </trkpt>
      <trkpt lat="45.36746" lon="5.76154">
        <ele>1020.1</ele>
        <time>2015-02-25T14:52:44Z</time>
      </trkpt>
      <trkpt lat="45.36744" lon="5.76148">
        <ele>1015.77</ele>
        <time>2015-02-25T14:52:46Z</time>
      </trkpt>
      <trkpt lat="45.36745" lon="5.76143">
        <ele>1015.77</ele>
        <time>2015-02-25T14:52:47Z</time>
      </trkpt>
      <trkpt lat="45.36744" lon="5.76134">
        <ele>1011.93</ele>
        <time>2015-02-25T14:52:49Z</time>
      </trkpt>
      <trkpt lat="45.36743" lon="5.7613">
        <ele>1008.56</ele>
        <time>2015-02-25T14:52:51Z</time>
      </trkpt>
      <trkpt lat="45.36743" lon="5.76128">
        <ele>1006.16</ele>
        <time>2015-02-25T14:52:54Z</time>
      </trkpt>
      <trkpt lat="45.36746" lon="5.76129">
        <ele>1006.16</ele>
        <time>2015-02-25T14:53:19Z</time>
      </trkpt>
      <trkpt lat="45.36746" lon="5.7613">
        <ele>1009.52</ele>
        <time>2015-02-25T14:54:40Z</time>
      </trkpt>
      <trkpt lat="45.36745" lon="5.76135">
        <ele>1012.41</ele>
        <time>2015-02-25T14:55:32Z</time>
      </trkpt>
      <trkpt lat="45.36748" lon="5.76135">
        <ele>1015.29</ele>
        <time>2015-02-25T14:56:53Z</time>
      </trkpt>
      <trkpt lat="45.36751" lon="5.76144">
        <ele>1018.65</ele>
        <time>2015-02-25T14:58:08Z</time>
      </trkpt>
      <trkpt lat="45.3675" lon="5.76152">
        <ele>1020.58</ele>
        <time>2015-02-25T14:58:25Z</time>
      </trkpt>
      <trkpt lat="45.36747" lon="5.76162">
        <ele>1023.46</ele>
        <time>2015-02-25T14:58:46Z</time>
      </trkpt>
      <trkpt lat="45.3675" lon="5.76175">
        <ele>1026.83</ele>
        <time>2015-02-25T14:59:05Z</time>
      </trkpt>
      <trkpt lat="45.36758" lon="5.7618">
        <ele>1029.71</ele>
        <time>2015-02-25T14:59:27Z</time>
      </trkpt>
      <trkpt lat="45.36746" lon="5.7617">
        <ele>1028.27</ele>
        <time>2015-02-25T14:59:56Z</time>
      </trkpt>
      <trkpt lat="45.36742" lon="5.76164">
        <ele>1024.9</ele>
        <time>2015-02-25T15:00:03Z</time>
      </trkpt>
      <trkpt lat="45.36735" lon="5.76151">
        <ele>1025.38</ele>
        <time>2015-02-25T15:00:24Z</time>
      </trkpt>
      <trkpt lat="45.36735" lon="5.76131">
        <ele>1024.9</ele>
        <time>2015-02-25T15:00:51Z</time>
      </trkpt>
      <trkpt lat="45.36733" lon="5.76119">
        <ele>1025.86</ele>
        <time>2015-02-25T15:01:29Z</time>
      </trkpt>
      <trkpt lat="45.3673" lon="5.76121">
        <ele>1026.34</ele>
        <time>2015-02-25T15:02:01Z</time>
      </trkpt>
      <trkpt lat="45.36715" lon="5.76124">
        <ele>1026.34</ele>
        <time>2015-02-25T15:02:36Z</time>
      </trkpt>
      <trkpt lat="45.36699" lon="5.76105">
        <ele>1026.34</ele>
        <time>2015-02-25T15:03:55Z</time>
      </trkpt>
      <trkpt lat="45.36694" lon="5.761">
        <ele>1025.86</ele>
        <time>2015-02-25T15:03:59Z</time>
      </trkpt>
      <trkpt lat="45.36668" lon="5.76085">
        <ele>1023.94</ele>
        <time>2015-02-25T15:04:16Z</time>
      </trkpt>
      <trkpt lat="45.36668" lon="5.76058">
        <ele>1022.98</ele>
        <time>2015-02-25T15:04:42Z</time>
      </trkpt>
      <trkpt lat="45.36651" lon="5.76053">
        <ele>1020.58</ele>
        <time>2015-02-25T15:04:59Z</time>
      </trkpt>
      <trkpt lat="45.36624" lon="5.76055">
        <ele>1015.29</ele>
        <time>2015-02-25T15:05:05Z</time>
      </trkpt>
      <trkpt lat="45.3661" lon="5.76054">
        <ele>1010.48</ele>
        <time>2015-02-25T15:05:08Z</time>
      </trkpt>
      <trkpt lat="45.36597" lon="5.76041">
        <ele>1007.12</ele>
        <time>2015-02-25T15:05:16Z</time>
      </trkpt>
      <trkpt lat="45.36579" lon="5.76022">
        <ele>1004.23</ele>
        <time>2015-02-25T15:05:27Z</time>
      </trkpt>
      <trkpt lat="45.36565" lon="5.7602">
        <ele>1001.83</ele>
        <time>2015-02-25T15:05:45Z</time>
      </trkpt>
      <trkpt lat="45.36549" lon="5.76027">
        <ele>998.47</ele>
        <time>2015-02-25T15:06:07Z</time>
      </trkpt>
      <trkpt lat="45.36537" lon="5.7603">
        <ele>997.51</ele>
        <time>2015-02-25T15:06:41Z</time>
      </trkpt>
      <trkpt lat="45.3653" lon="5.76027">
        <ele>997.51</ele>
        <time>2015-02-25T15:06:49Z</time>
      </trkpt>
      <trkpt lat="45.36516" lon="5.76018">
        <ele>994.14</ele>
        <time>2015-02-25T15:06:59Z</time>
      </trkpt>
      <trkpt lat="45.36503" lon="5.75981">
        <ele>993.18</ele>
        <time>2015-02-25T15:07:18Z</time>
      </trkpt>
      <trkpt lat="45.36502" lon="5.75978">
        <ele>992.7</ele>
        <time>2015-02-25T15:07:20Z</time>
      </trkpt>
      <trkpt lat="45.36495" lon="5.75954">
        <ele>990.78</ele>
        <time>2015-02-25T15:07:31Z</time>
      </trkpt>
      <trkpt lat="45.36491" lon="5.7595">
        <ele>991.74</ele>
        <time>2015-02-25T15:07:56Z</time>
      </trkpt>
      <trkpt lat="45.36493" lon="5.75957">
        <ele>992.22</ele>
        <time>2015-02-25T15:08:10Z</time>
      </trkpt>
      <trkpt lat="45.36484" lon="5.75966">
        <ele>988.85</ele>
        <time>2015-02-25T15:08:20Z</time>
      </trkpt>
      <trkpt lat="45.36472" lon="5.75966">
        <ele>985.49</ele>
        <time>2015-02-25T15:08:28Z</time>
      </trkpt>
      <trkpt lat="45.36463" lon="5.75962">
        <ele>981.16</ele>
        <time>2015-02-25T15:08:31Z</time>
      </trkpt>
      <trkpt lat="45.36455" lon="5.75959">
        <ele>978.76</ele>
        <time>2015-02-25T15:08:35Z</time>
      </trkpt>
      <trkpt lat="45.36441" lon="5.75949">
        <ele>975.88</ele>
        <time>2015-02-25T15:08:45Z</time>
      </trkpt>
      <trkpt lat="45.36426" lon="5.75937">
        <ele>972.03</ele>
        <time>2015-02-25T15:08:55Z</time>
      </trkpt>
      <trkpt lat="45.36424" lon="5.75938">
        <ele>971.07</ele>
        <time>2015-02-25T15:08:56Z</time>
      </trkpt>
      <trkpt lat="45.36414" lon="5.7595">
        <ele>965.78</ele>
        <time>2015-02-25T15:09:00Z</time>
      </trkpt>
      <trkpt lat="45.36413" lon="5.75951">
        <ele>965.78</ele>
        <time>2015-02-25T15:09:01Z</time>
      </trkpt>
      <trkpt lat="45.36411" lon="5.75952">
        <ele>963.38</ele>
        <time>2015-02-25T15:09:05Z</time>
      </trkpt>
      <trkpt lat="45.36395" lon="5.75955">
        <ele>959.53</ele>
        <time>2015-02-25T15:09:11Z</time>
      </trkpt>
      <trkpt lat="45.36392" lon="5.75959">
        <ele>959.53</ele>
        <time>2015-02-25T15:09:12Z</time>
      </trkpt>
      <trkpt lat="45.36388" lon="5.75961">
        <ele>956.65</ele>
        <time>2015-02-25T15:09:14Z</time>
      </trkpt>
      <trkpt lat="45.36388" lon="5.75964">
        <ele>953.28</ele>
        <time>2015-02-25T15:09:18Z</time>
      </trkpt>
      <trkpt lat="45.36383" lon="5.75964">
        <ele>951.84</ele>
        <time>2015-02-25T15:09:45Z</time>
      </trkpt>
      <trkpt lat="45.36386" lon="5.75961">
        <ele>952.32</ele>
        <time>2015-02-25T15:10:40Z</time>
      </trkpt>
      <trkpt lat="45.36393" lon="5.7596">
        <ele>955.69</ele>
        <time>2015-02-25T15:10:54Z</time>
      </trkpt>
      <trkpt lat="45.36395" lon="5.7597">
        <ele>958.57</ele>
        <time>2015-02-25T15:11:13Z</time>
      </trkpt>
      <trkpt lat="45.36394" lon="5.75989">
        <ele>959.05</ele>
        <time>2015-02-25T15:11:35Z</time>
      </trkpt>
      <trkpt lat="45.36383" lon="5.76007">
        <ele>956.65</ele>
        <time>2015-02-25T15:11:58Z</time>
      </trkpt>
      <trkpt lat="45.36376" lon="5.76016">
        <ele>953.77</ele>
        <time>2015-02-25T15:12:17Z</time>
      </trkpt>
      <trkpt lat="45.36366" lon="5.76036">
        <ele>952.32</ele>
        <time>2015-02-25T15:12:51Z</time>
      </trkpt>
      <trkpt lat="45.36355" lon="5.76044">
        <ele>952.32</ele>
        <time>2015-02-25T15:13:10Z</time>
      </trkpt>
      <trkpt lat="45.36349" lon="5.76051">
        <ele>952.32</ele>
        <time>2015-02-25T15:13:30Z</time>
      </trkpt>
      <trkpt lat="45.3634" lon="5.76053">
        <ele>949.44</ele>
        <time>2015-02-25T15:13:47Z</time>
      </trkpt>
      <trkpt lat="45.36329" lon="5.76052">
        <ele>952.32</ele>
        <time>2015-02-25T15:14:30Z</time>
      </trkpt>
      <trkpt lat="45.36331" lon="5.76059">
        <ele>955.69</ele>
        <time>2015-02-25T15:14:56Z</time>
      </trkpt>
      <trkpt lat="45.3633" lon="5.76065">
        <ele>957.61</ele>
        <time>2015-02-25T15:15:13Z</time>
      </trkpt>
      <trkpt lat="45.36316" lon="5.76068">
        <ele>960.49</ele>
        <time>2015-02-25T15:15:37Z</time>
      </trkpt>
      <trkpt lat="45.36307" lon="5.76069">
        <ele>963.38</ele>
        <time>2015-02-25T15:16:01Z</time>
      </trkpt>
      <trkpt lat="45.36297" lon="5.7607">
        <ele>966.26</ele>
        <time>2015-02-25T15:16:23Z</time>
      </trkpt>
      <trkpt lat="45.36301" lon="5.76081">
        <ele>967.7</ele>
        <time>2015-02-25T15:16:48Z</time>
      </trkpt>
      <trkpt lat="45.36297" lon="5.76081">
        <ele>970.59</ele>
        <time>2015-02-25T15:17:15Z</time>
      </trkpt>
      <trkpt lat="45.36294" lon="5.76081">
        <ele>972.03</ele>
        <time>2015-02-25T15:17:39Z</time>
      </trkpt>
      <trkpt lat="45.36292" lon="5.76087">
        <ele>974.43</ele>
        <time>2015-02-25T15:17:57Z</time>
      </trkpt>
      <trkpt lat="45.36288" lon="5.76087">
        <ele>977.32</ele>
        <time>2015-02-25T15:18:15Z</time>
      </trkpt>
      <trkpt lat="45.36279" lon="5.7609">
        <ele>979.24</ele>
        <time>2015-02-25T15:18:36Z</time>
      </trkpt>
      <trkpt lat="45.36282" lon="5.76096">
        <ele>981.16</ele>
        <time>2015-02-25T15:18:53Z</time>
      </trkpt>
      <trkpt lat="45.3628" lon="5.761">
        <ele>983.09</ele>
        <time>2015-02-25T15:19:11Z</time>
      </trkpt>
      <trkpt lat="45.36281" lon="5.76098">
        <ele>981.16</ele>
        <time>2015-02-25T15:21:04Z</time>
      </trkpt>
      <trkpt lat="45.36285" lon="5.761">
        <ele>978.28</ele>
        <time>2015-02-25T15:23:33Z</time>
      </trkpt>
      <trkpt lat="45.36274" lon="5.76092">
        <ele>976.36</ele>
        <time>2015-02-25T15:24:20Z</time>
      </trkpt>
      <trkpt lat="45.36244" lon="5.76071">
        <ele>973.47</ele>
        <time>2015-02-25T15:24:30Z</time>
      </trkpt>
      <trkpt lat="45.36229" lon="5.76051">
        <ele>969.15</ele>
        <time>2015-02-25T15:24:34Z</time>
      </trkpt>
      <trkpt lat="45.36223" lon="5.76044">
        <ele>966.74</ele>
        <time>2015-02-25T15:24:36Z</time>
      </trkpt>
      <trkpt lat="45.36215" lon="5.76017">
        <ele>962.42</ele>
        <time>2015-02-25T15:24:46Z</time>
      </trkpt>
      <trkpt lat="45.36216" lon="5.75996">
        <ele>959.05</ele>
        <time>2015-02-25T15:24:50Z</time>
      </trkpt>
      <trkpt lat="45.36218" lon="5.75967">
        <ele>955.21</ele>
        <time>2015-02-25T15:24:54Z</time>
      </trkpt>
      <trkpt lat="45.3622" lon="5.7595">
        <ele>952.32</ele>
        <time>2015-02-25T15:24:56Z</time>
      </trkpt>
      <trkpt lat="45.36219" lon="5.7594">
        <ele>948.48</ele>
        <time>2015-02-25T15:24:58Z</time>
      </trkpt>
      <trkpt lat="45.36215" lon="5.75939">
        <ele>947.04</ele>
        <time>2015-02-25T15:24:59Z</time>
      </trkpt>
      <trkpt lat="45.36201" lon="5.75944">
        <ele>940.79</ele>
        <time>2015-02-25T15:25:03Z</time>
      </trkpt>
      <trkpt lat="45.36194" lon="5.75953">
        <ele>936.94</ele>
        <time>2015-02-25T15:25:05Z</time>
      </trkpt>
      <trkpt lat="45.36186" lon="5.75963">
        <ele>935.02</ele>
        <time>2015-02-25T15:25:07Z</time>
      </trkpt>
      <trkpt lat="45.36179" lon="5.75974">
        <ele>930.69</ele>
        <time>2015-02-25T15:25:09Z</time>
      </trkpt>
      <trkpt lat="45.36175" lon="5.75983">
        <ele>926.85</ele>
        <time>2015-02-25T15:25:11Z</time>
      </trkpt>
      <trkpt lat="45.36168" lon="5.75996">
        <ele>923</ele>
        <time>2015-02-25T15:25:14Z</time>
      </trkpt>
      <trkpt lat="45.3616" lon="5.7601">
        <ele>920.6</ele>
        <time>2015-02-25T15:25:18Z</time>
      </trkpt>
      <trkpt lat="45.36157" lon="5.76014">
        <ele>919.64</ele>
        <time>2015-02-25T15:25:19Z</time>
      </trkpt>
      <trkpt lat="45.36145" lon="5.76026">
        <ele>915.31</ele>
        <time>2015-02-25T15:25:23Z</time>
      </trkpt>
      <trkpt lat="45.36134" lon="5.76032">
        <ele>911.95</ele>
        <time>2015-02-25T15:25:28Z</time>
      </trkpt>
      <trkpt lat="45.36113" lon="5.76034">
        <ele>908.58</ele>
        <time>2015-02-25T15:25:35Z</time>
      </trkpt>
      <trkpt lat="45.36094" lon="5.76034">
        <ele>904.74</ele>
        <time>2015-02-25T15:25:39Z</time>
      </trkpt>
      <trkpt lat="45.3608" lon="5.76032">
        <ele>902.33</ele>
        <time>2015-02-25T15:25:42Z</time>
      </trkpt>
      <trkpt lat="45.36069" lon="5.7603">
        <ele>898.97</ele>
        <time>2015-02-25T15:25:45Z</time>
      </trkpt>
      <trkpt lat="45.36055" lon="5.76028">
        <ele>895.61</ele>
        <time>2015-02-25T15:25:49Z</time>
      </trkpt>
      <trkpt lat="45.36041" lon="5.76024">
        <ele>892.72</ele>
        <time>2015-02-25T15:25:53Z</time>
      </trkpt>
      <trkpt lat="45.36022" lon="5.76021">
        <ele>889.36</ele>
        <time>2015-02-25T15:26:02Z</time>
      </trkpt>
      <trkpt lat="45.36003" lon="5.76011">
        <ele>885.99</ele>
        <time>2015-02-25T15:26:10Z</time>
      </trkpt>
      <trkpt lat="45.35983" lon="5.76005">
        <ele>883.11</ele>
        <time>2015-02-25T15:26:20Z</time>
      </trkpt>
      <trkpt lat="45.35977" lon="5.76001">
        <ele>883.11</ele>
        <time>2015-02-25T15:26:22Z</time>
      </trkpt>
      <trkpt lat="45.3596" lon="5.75995">
        <ele>879.26</ele>
        <time>2015-02-25T15:26:27Z</time>
      </trkpt>
      <trkpt lat="45.35949" lon="5.76">
        <ele>875.42</ele>
        <time>2015-02-25T15:26:30Z</time>
      </trkpt>
      <trkpt lat="45.3594" lon="5.76005">
        <ele>872.05</ele>
        <time>2015-02-25T15:26:32Z</time>
      </trkpt>
      <trkpt lat="45.35934" lon="5.76007">
        <ele>872.05</ele>
        <time>2015-02-25T15:26:33Z</time>
      </trkpt>
      <trkpt lat="45.35924" lon="5.76009">
        <ele>868.69</ele>
        <time>2015-02-25T15:26:35Z</time>
      </trkpt>
      <trkpt lat="45.35915" lon="5.76012">
        <ele>865.8</ele>
        <time>2015-02-25T15:26:37Z</time>
      </trkpt>
      <trkpt lat="45.359" lon="5.76014">
        <ele>861.48</ele>
        <time>2015-02-25T15:26:40Z</time>
      </trkpt>
      <trkpt lat="45.35885" lon="5.76018">
        <ele>857.63</ele>
        <time>2015-02-25T15:26:43Z</time>
      </trkpt>
      <trkpt lat="45.35875" lon="5.76016">
        <ele>856.19</ele>
        <time>2015-02-25T15:26:45Z</time>
      </trkpt>
      <trkpt lat="45.35858" lon="5.76016">
        <ele>851.87</ele>
        <time>2015-02-25T15:26:48Z</time>
      </trkpt>
      <trkpt lat="45.35854" lon="5.76015">
        <ele>850.42</ele>
        <time>2015-02-25T15:26:49Z</time>
      </trkpt>
      <trkpt lat="45.35839" lon="5.76012">
        <ele>845.62</ele>
        <time>2015-02-25T15:26:52Z</time>
      </trkpt>
      <trkpt lat="45.35836" lon="5.76">
        <ele>841.77</ele>
        <time>2015-02-25T15:26:54Z</time>
      </trkpt>
      <trkpt lat="45.35845" lon="5.75988">
        <ele>837.45</ele>
        <time>2015-02-25T15:26:56Z</time>
      </trkpt>
      <trkpt lat="45.35853" lon="5.75973">
        <ele>834.08</ele>
        <time>2015-02-25T15:26:59Z</time>
      </trkpt>
      <trkpt lat="45.35857" lon="5.75961">
        <ele>830.72</ele>
        <time>2015-02-25T15:27:01Z</time>
      </trkpt>
      <trkpt lat="45.35859" lon="5.7594">
        <ele>825.91</ele>
        <time>2015-02-25T15:27:04Z</time>
      </trkpt>
      <trkpt lat="45.35859" lon="5.75932">
        <ele>823.99</ele>
        <time>2015-02-25T15:27:05Z</time>
      </trkpt>
      <trkpt lat="45.35853" lon="5.75915">
        <ele>817.74</ele>
        <time>2015-02-25T15:27:08Z</time>
      </trkpt>
      <trkpt lat="45.35841" lon="5.75916">
        <ele>815.82</ele>
        <time>2015-02-25T15:27:10Z</time>
      </trkpt>
      <trkpt lat="45.35832" lon="5.75921">
        <ele>811.49</ele>
        <time>2015-02-25T15:27:12Z</time>
      </trkpt>
      <trkpt lat="45.35819" lon="5.75924">
        <ele>806.2</ele>
        <time>2015-02-25T15:27:15Z</time>
      </trkpt>
      <trkpt lat="45.35807" lon="5.75928">
        <ele>801.88</ele>
        <time>2015-02-25T15:27:18Z</time>
      </trkpt>
      <trkpt lat="45.35799" lon="5.75931">
        <ele>798.51</ele>
        <time>2015-02-25T15:27:20Z</time>
      </trkpt>
      <trkpt lat="45.35791" lon="5.7593">
        <ele>796.59</ele>
        <time>2015-02-25T15:27:22Z</time>
      </trkpt>
      <trkpt lat="45.35793" lon="5.75924">
        <ele>792.74</ele>
        <time>2015-02-25T15:27:25Z</time>
      </trkpt>
      <trkpt lat="45.35801" lon="5.75928">
        <ele>790.34</ele>
        <time>2015-02-25T15:27:29Z</time>
      </trkpt>
      <trkpt lat="45.35807" lon="5.75914">
        <ele>786.5</ele>
        <time>2015-02-25T15:27:39Z</time>
      </trkpt>
      <trkpt lat="45.35811" lon="5.75899">
        <ele>782.65</ele>
        <time>2015-02-25T15:27:42Z</time>
      </trkpt>
      <trkpt lat="45.35813" lon="5.75886">
        <ele>779.29</ele>
        <time>2015-02-25T15:27:45Z</time>
      </trkpt>
      <trkpt lat="45.35815" lon="5.75878">
        <ele>778.32</ele>
        <time>2015-02-25T15:27:47Z</time>
      </trkpt>
      <trkpt lat="45.3582" lon="5.75859">
        <ele>774.48</ele>
        <time>2015-02-25T15:27:51Z</time>
      </trkpt>
      <trkpt lat="45.35826" lon="5.75846">
        <ele>771.11</ele>
        <time>2015-02-25T15:27:54Z</time>
      </trkpt>
      <trkpt lat="45.35828" lon="5.75842">
        <ele>769.67</ele>
        <time>2015-02-25T15:27:55Z</time>
      </trkpt>
      <trkpt lat="45.35841" lon="5.75826">
        <ele>765.83</ele>
        <time>2015-02-25T15:27:59Z</time>
      </trkpt>
      <trkpt lat="45.35846" lon="5.75831">
        <ele>762.94</ele>
        <time>2015-02-25T15:28:03Z</time>
      </trkpt>
      <trkpt lat="45.35846" lon="5.7583">
        <ele>761.02</ele>
        <time>2015-02-25T15:28:31Z</time>
      </trkpt>
      <trkpt lat="45.35846" lon="5.7583">
        <ele>758.14</ele>
        <time>2015-02-25T15:29:03Z</time>
      </trkpt>
      <trkpt lat="45.35846" lon="5.7583">
        <ele>754.77</ele>
        <time>2015-02-25T15:29:16Z</time>
      </trkpt>
      <trkpt lat="45.35845" lon="5.7583">
        <ele>751.89</ele>
        <time>2015-02-25T15:29:25Z</time>
      </trkpt>
      <trkpt lat="45.35845" lon="5.7583">
        <ele>748.52</ele>
        <time>2015-02-25T15:29:42Z</time>
      </trkpt>
      <trkpt lat="45.35845" lon="5.7583">
        <ele>745.16</ele>
        <time>2015-02-25T15:30:01Z</time>
      </trkpt>
      <trkpt lat="45.35844" lon="5.7583">
        <ele>742.28</ele>
        <time>2015-02-25T15:30:23Z</time>
      </trkpt>
      <trkpt lat="45.35844" lon="5.7583">
        <ele>739.39</ele>
        <time>2015-02-25T15:30:34Z</time>
      </trkpt>
      <trkpt lat="45.35844" lon="5.7583">
        <ele>736.03</ele>
        <time>2015-02-25T15:30:48Z</time>
      </trkpt>
      <trkpt lat="45.35842" lon="5.75831">
        <ele>733.14</ele>
        <time>2015-02-25T15:31:06Z</time>
      </trkpt>
      <trkpt lat="45.35842" lon="5.75831">
        <ele>729.78</ele>
        <time>2015-02-25T15:31:18Z</time>
      </trkpt>
      <trkpt lat="45.35841" lon="5.75831">
        <ele>726.89</ele>
        <time>2015-02-25T15:31:46Z</time>
      </trkpt>
      <trkpt lat="45.3584" lon="5.75832">
        <ele>723.53</ele>
        <time>2015-02-25T15:31:57Z</time>
      </trkpt>
      <trkpt lat="45.35796" lon="5.75828">
        <ele>720.65</ele>
        <time>2015-02-25T15:32:12Z</time>
      </trkpt>
      <trkpt lat="45.35768" lon="5.75827">
        <ele>720.16</ele>
        <time>2015-02-25T15:32:16Z</time>
      </trkpt>
      <trkpt lat="45.35703" lon="5.75849">
        <ele>716.8</ele>
        <time>2015-02-25T15:32:34Z</time>
      </trkpt>
      <trkpt lat="45.35678" lon="5.75853">
        <ele>714.4</ele>
        <time>2015-02-25T15:32:55Z</time>
      </trkpt>
      <trkpt lat="45.35663" lon="5.75857">
        <ele>711.03</ele>
        <time>2015-02-25T15:33:05Z</time>
      </trkpt>
      <trkpt lat="45.35653" lon="5.75864">
        <ele>708.15</ele>
        <time>2015-02-25T15:33:14Z</time>
      </trkpt>
      <trkpt lat="45.35646" lon="5.75871">
        <ele>705.26</ele>
        <time>2015-02-25T15:33:26Z</time>
      </trkpt>
      <trkpt lat="45.35643" lon="5.75879">
        <ele>701.9</ele>
        <time>2015-02-25T15:33:40Z</time>
      </trkpt>
      <trkpt lat="45.35634" lon="5.75881">
        <ele>699.02</ele>
        <time>2015-02-25T15:33:51Z</time>
      </trkpt>
      <trkpt lat="45.35624" lon="5.75883">
        <ele>695.65</ele>
        <time>2015-02-25T15:34:02Z</time>
      </trkpt>
      <trkpt lat="45.35617" lon="5.75884">
        <ele>692.77</ele>
        <time>2015-02-25T15:34:12Z</time>
      </trkpt>
      <trkpt lat="45.35613" lon="5.75887">
        <ele>689.4</ele>
        <time>2015-02-25T15:34:22Z</time>
      </trkpt>
      <trkpt lat="45.35605" lon="5.75886">
        <ele>686.04</ele>
        <time>2015-02-25T15:34:32Z</time>
      </trkpt>
      <trkpt lat="45.35597" lon="5.75886">
        <ele>683.15</ele>
        <time>2015-02-25T15:34:42Z</time>
      </trkpt>
      <trkpt lat="45.35586" lon="5.75884">
        <ele>679.79</ele>
        <time>2015-02-25T15:34:52Z</time>
      </trkpt>
      <trkpt lat="45.35573" lon="5.75882">
        <ele>676.42</ele>
        <time>2015-02-25T15:35:04Z</time>
      </trkpt>
      <trkpt lat="45.35566" lon="5.7588">
        <ele>673.54</ele>
        <time>2015-02-25T15:35:13Z</time>
      </trkpt>
      <trkpt lat="45.35557" lon="5.75879">
        <ele>670.18</ele>
        <time>2015-02-25T15:35:24Z</time>
      </trkpt>
      <trkpt lat="45.35552" lon="5.75882">
        <ele>667.29</ele>
        <time>2015-02-25T15:35:33Z</time>
      </trkpt>
      <trkpt lat="45.35543" lon="5.75881">
        <ele>663.93</ele>
        <time>2015-02-25T15:35:40Z</time>
      </trkpt>
      <trkpt lat="45.35538" lon="5.75879">
        <ele>661.04</ele>
        <time>2015-02-25T15:35:47Z</time>
      </trkpt>
      <trkpt lat="45.35532" lon="5.75873">
        <ele>658.64</ele>
        <time>2015-02-25T15:35:54Z</time>
      </trkpt>
      <trkpt lat="45.35524" lon="5.75859">
        <ele>654.8</ele>
        <time>2015-02-25T15:36:02Z</time>
      </trkpt>
      <trkpt lat="45.35523" lon="5.75855">
        <ele>653.83</ele>
        <time>2015-02-25T15:36:04Z</time>
      </trkpt>
      <trkpt lat="45.35529" lon="5.75839">
        <ele>650.47</ele>
        <time>2015-02-25T15:36:14Z</time>
      </trkpt>
      <trkpt lat="45.35527" lon="5.75826">
        <ele>647.1</ele>
        <time>2015-02-25T15:36:24Z</time>
      </trkpt>
      <trkpt lat="45.35533" lon="5.75818">
        <ele>643.74</ele>
        <time>2015-02-25T15:36:32Z</time>
      </trkpt>
      <trkpt lat="45.35529" lon="5.75812">
        <ele>640.86</ele>
        <time>2015-02-25T15:36:43Z</time>
      </trkpt>
      <trkpt lat="45.35521" lon="5.75809">
        <ele>638.45</ele>
        <time>2015-02-25T15:36:52Z</time>
      </trkpt>
      <trkpt lat="45.35512" lon="5.75812">
        <ele>636.05</ele>
        <time>2015-02-25T15:37:00Z</time>
      </trkpt>
      <trkpt lat="45.35501" lon="5.75816">
        <ele>632.2</ele>
        <time>2015-02-25T15:37:09Z</time>
      </trkpt>
      <trkpt lat="45.35492" lon="5.75818">
        <ele>631.24</ele>
        <time>2015-02-25T15:37:14Z</time>
      </trkpt>
      <trkpt lat="45.35486" lon="5.75826">
        <ele>627.88</ele>
        <time>2015-02-25T15:37:24Z</time>
      </trkpt>
      <trkpt lat="45.35484" lon="5.75826">
        <ele>626.44</ele>
        <time>2015-02-25T15:37:27Z</time>
      </trkpt>
      <trkpt lat="45.35479" lon="5.75827">
        <ele>624.03</ele>
        <time>2015-02-25T15:37:33Z</time>
      </trkpt>
      <trkpt lat="45.35471" lon="5.75832">
        <ele>620.67</ele>
        <time>2015-02-25T15:37:47Z</time>
      </trkpt>
      <trkpt lat="45.35469" lon="5.75833">
        <ele>619.23</ele>
        <time>2015-02-25T15:37:51Z</time>
      </trkpt>
      <trkpt lat="45.35464" lon="5.75853">
        <ele>616.34</ele>
        <time>2015-02-25T15:38:08Z</time>
      </trkpt>
      <trkpt lat="45.35444" lon="5.7586">
        <ele>614.9</ele>
        <time>2015-02-25T15:38:22Z</time>
      </trkpt>
      <trkpt lat="45.35423" lon="5.75874">
        <ele>612.98</ele>
        <time>2015-02-25T15:38:44Z</time>
      </trkpt>
      <trkpt lat="45.35415" lon="5.75875">
        <ele>611.54</ele>
        <time>2015-02-25T15:38:52Z</time>
      </trkpt>
      <trkpt lat="45.35402" lon="5.75878">
        <ele>610.09</ele>
        <time>2015-02-25T15:39:05Z</time>
      </trkpt>
      <trkpt lat="45.35399" lon="5.75883">
        <ele>608.65</ele>
        <time>2015-02-25T15:39:13Z</time>
      </trkpt>
      <trkpt lat="45.35384" lon="5.75881">
        <ele>605.77</ele>
        <time>2015-02-25T15:39:32Z</time>
      </trkpt>
      <trkpt lat="45.3538" lon="5.75883">
        <ele>604.81</ele>
        <time>2015-02-25T15:39:55Z</time>
      </trkpt>
      <trkpt lat="45.35376" lon="5.7587">
        <ele>604.33</ele>
        <time>2015-02-25T15:40:58Z</time>
      </trkpt>
      <trkpt lat="45.35372" lon="5.75871">
        <ele>603.85</ele>
        <time>2015-02-25T15:41:31Z</time>
      </trkpt>
      <trkpt lat="45.3536" lon="5.75905">
        <ele>605.77</ele>
        <time>2015-02-25T15:42:30Z</time>
      </trkpt>
      <trkpt lat="45.35341" lon="5.7591">
        <ele>607.21</ele>
        <time>2015-02-25T15:42:53Z</time>
      </trkpt>
      <trkpt lat="45.35336" lon="5.75913">
        <ele>607.69</ele>
        <time>2015-02-25T15:43:04Z</time>
      </trkpt>
    </trkseg>
  </trk>
</gpx>